<?xml version="1.0" encoding="UTF-8" standalone="no" ?>
<gpx xmlns="http://www.topografix.com/GPX/1/1" xmlns:xsi="http://www.w3.org/2001/XMLSchema-instance" xsi:schemaLocation="http://www.topografix.com/GPX/1/1 http://www.topografix.com/GPX/1/1/gpx.xsd" version="1.1" creator="VisuGPX - https://www.visugpx.com">
  <metadata>
    <name>Q-Bike 281023 35 KM</name>
  </metadata>
  <trk>
    <name><![CDATA[RANDO 281023 35 KM-17844018]]></name>
    <extensions>
      <line xmlns="http://www.topografix.com/GPX/gpx_style/0/2">
        <color>0000FF</color>
        <width>4</width>
      </line>
    </extensions>
    <trkseg>
      <trkpt lat="50.41961" lon="3.86807">
        <ele>81</ele>
        <time>2023-10-22T09:55:39Z</time>
      </trkpt>
      <trkpt lat="50.41986" lon="3.86879">
        <ele>81</ele>
        <time>2023-10-22T09:55:51Z</time>
      </trkpt>
      <trkpt lat="50.41995" lon="3.86899">
        <ele>80</ele>
        <time>2023-10-22T09:55:55Z</time>
      </trkpt>
      <trkpt lat="50.42001" lon="3.86907">
        <ele>80</ele>
        <time>2023-10-22T09:55:57Z</time>
      </trkpt>
      <trkpt lat="50.42018" lon="3.86922">
        <ele>81</ele>
        <time>2023-10-22T09:56:01Z</time>
      </trkpt>
      <trkpt lat="50.4209" lon="3.86969">
        <ele>83</ele>
        <time>2023-10-22T09:56:19Z</time>
      </trkpt>
      <trkpt lat="50.42102" lon="3.86982">
        <ele>82</ele>
        <time>2023-10-22T09:56:23Z</time>
      </trkpt>
      <trkpt lat="50.42099" lon="3.86992">
        <ele>81</ele>
        <time>2023-10-22T09:56:24Z</time>
      </trkpt>
      <trkpt lat="50.42101" lon="3.87004">
        <ele>81</ele>
        <time>2023-10-22T09:56:26Z</time>
      </trkpt>
      <trkpt lat="50.42106" lon="3.8701">
        <ele>81</ele>
        <time>2023-10-22T09:56:28Z</time>
      </trkpt>
      <trkpt lat="50.42114" lon="3.87011">
        <ele>81</ele>
        <time>2023-10-22T09:56:30Z</time>
      </trkpt>
      <trkpt lat="50.42121" lon="3.87024">
        <ele>80</ele>
        <time>2023-10-22T09:56:32Z</time>
      </trkpt>
      <trkpt lat="50.42191" lon="3.87101">
        <ele>77</ele>
        <time>2023-10-22T09:56:52Z</time>
      </trkpt>
      <trkpt lat="50.42203" lon="3.87138">
        <ele>77</ele>
        <time>2023-10-22T09:56:58Z</time>
      </trkpt>
      <trkpt lat="50.42221" lon="3.87221">
        <ele>77</ele>
        <time>2023-10-22T09:57:11Z</time>
      </trkpt>
      <trkpt lat="50.42285" lon="3.87389">
        <ele>75</ele>
        <time>2023-10-22T09:57:41Z</time>
      </trkpt>
      <trkpt lat="50.42291" lon="3.87417">
        <ele>75</ele>
        <time>2023-10-22T09:57:45Z</time>
      </trkpt>
      <trkpt lat="50.42291" lon="3.87431">
        <ele>75</ele>
        <time>2023-10-22T09:57:47Z</time>
      </trkpt>
      <trkpt lat="50.42284" lon="3.87477">
        <ele>77</ele>
        <time>2023-10-22T09:57:54Z</time>
      </trkpt>
      <trkpt lat="50.42259" lon="3.87572">
        <ele>79</ele>
        <time>2023-10-22T09:58:09Z</time>
      </trkpt>
      <trkpt lat="50.42238" lon="3.87574">
        <ele>79</ele>
        <time>2023-10-22T09:58:14Z</time>
      </trkpt>
      <trkpt lat="50.42234" lon="3.87645">
        <ele>78</ele>
        <time>2023-10-22T09:58:25Z</time>
      </trkpt>
      <trkpt lat="50.42325" lon="3.87651">
        <ele>77</ele>
        <time>2023-10-22T09:58:46Z</time>
      </trkpt>
      <trkpt lat="50.42341" lon="3.87644">
        <ele>77</ele>
        <time>2023-10-22T09:58:50Z</time>
      </trkpt>
      <trkpt lat="50.42353" lon="3.87619">
        <ele>77</ele>
        <time>2023-10-22T09:58:55Z</time>
      </trkpt>
      <trkpt lat="50.42373" lon="3.87604">
        <ele>76</ele>
        <time>2023-10-22T09:59:00Z</time>
      </trkpt>
      <trkpt lat="50.42383" lon="3.87591">
        <ele>75</ele>
        <time>2023-10-22T09:59:03Z</time>
      </trkpt>
      <trkpt lat="50.42406" lon="3.87521">
        <ele>72</ele>
        <time>2023-10-22T09:59:15Z</time>
      </trkpt>
      <trkpt lat="50.4243" lon="3.87478">
        <ele>71</ele>
        <time>2023-10-22T09:59:23Z</time>
      </trkpt>
      <trkpt lat="50.42473" lon="3.87411">
        <ele>70</ele>
        <time>2023-10-22T09:59:37Z</time>
      </trkpt>
      <trkpt lat="50.42476" lon="3.87396">
        <ele>70</ele>
        <time>2023-10-22T09:59:40Z</time>
      </trkpt>
      <trkpt lat="50.42475" lon="3.87388">
        <ele>70</ele>
        <time>2023-10-22T09:59:41Z</time>
      </trkpt>
      <trkpt lat="50.4248" lon="3.8737">
        <ele>70</ele>
        <time>2023-10-22T09:59:44Z</time>
      </trkpt>
      <trkpt lat="50.42491" lon="3.8735">
        <ele>69</ele>
        <time>2023-10-22T09:59:48Z</time>
      </trkpt>
      <trkpt lat="50.42498" lon="3.87327">
        <ele>69</ele>
        <time>2023-10-22T09:59:51Z</time>
      </trkpt>
      <trkpt lat="50.42506" lon="3.87314">
        <ele>70</ele>
        <time>2023-10-22T09:59:54Z</time>
      </trkpt>
      <trkpt lat="50.4251" lon="3.87299">
        <ele>70</ele>
        <time>2023-10-22T09:59:57Z</time>
      </trkpt>
      <trkpt lat="50.42544" lon="3.87217">
        <ele>73</ele>
        <time>2023-10-22T10:00:11Z</time>
      </trkpt>
      <trkpt lat="50.42543" lon="3.87194">
        <ele>73</ele>
        <time>2023-10-22T10:00:15Z</time>
      </trkpt>
      <trkpt lat="50.42547" lon="3.87192">
        <ele>73</ele>
        <time>2023-10-22T10:00:16Z</time>
      </trkpt>
      <trkpt lat="50.4256" lon="3.8716">
        <ele>74</ele>
        <time>2023-10-22T10:00:21Z</time>
      </trkpt>
      <trkpt lat="50.42558" lon="3.87131">
        <ele>76</ele>
        <time>2023-10-22T10:00:26Z</time>
      </trkpt>
      <trkpt lat="50.42576" lon="3.87088">
        <ele>76</ele>
        <time>2023-10-22T10:00:33Z</time>
      </trkpt>
      <trkpt lat="50.42595" lon="3.87058">
        <ele>75</ele>
        <time>2023-10-22T10:00:39Z</time>
      </trkpt>
      <trkpt lat="50.42597" lon="3.87035">
        <ele>75</ele>
        <time>2023-10-22T10:00:43Z</time>
      </trkpt>
      <trkpt lat="50.42603" lon="3.8702">
        <ele>75</ele>
        <time>2023-10-22T10:00:46Z</time>
      </trkpt>
      <trkpt lat="50.42605" lon="3.87002">
        <ele>74</ele>
        <time>2023-10-22T10:00:48Z</time>
      </trkpt>
      <trkpt lat="50.42619" lon="3.86963">
        <ele>69</ele>
        <time>2023-10-22T10:00:55Z</time>
      </trkpt>
      <trkpt lat="50.42617" lon="3.86936">
        <ele>67</ele>
        <time>2023-10-22T10:00:59Z</time>
      </trkpt>
      <trkpt lat="50.42625" lon="3.86896">
        <ele>63</ele>
        <time>2023-10-22T10:01:05Z</time>
      </trkpt>
      <trkpt lat="50.42629" lon="3.8684">
        <ele>59</ele>
        <time>2023-10-22T10:01:14Z</time>
      </trkpt>
      <trkpt lat="50.42636" lon="3.86808">
        <ele>57</ele>
        <time>2023-10-22T10:01:19Z</time>
      </trkpt>
      <trkpt lat="50.4264" lon="3.86801">
        <ele>57</ele>
        <time>2023-10-22T10:01:20Z</time>
      </trkpt>
      <trkpt lat="50.42641" lon="3.86788">
        <ele>56</ele>
        <time>2023-10-22T10:01:22Z</time>
      </trkpt>
      <trkpt lat="50.4263" lon="3.8673">
        <ele>56</ele>
        <time>2023-10-22T10:01:31Z</time>
      </trkpt>
      <trkpt lat="50.42704" lon="3.86729">
        <ele>53</ele>
        <time>2023-10-22T10:01:48Z</time>
      </trkpt>
      <trkpt lat="50.42705" lon="3.86757">
        <ele>53</ele>
        <time>2023-10-22T10:01:52Z</time>
      </trkpt>
      <trkpt lat="50.42708" lon="3.8677">
        <ele>53</ele>
        <time>2023-10-22T10:01:54Z</time>
      </trkpt>
      <trkpt lat="50.42707" lon="3.86789">
        <ele>53</ele>
        <time>2023-10-22T10:01:57Z</time>
      </trkpt>
      <trkpt lat="50.42694" lon="3.86861">
        <ele>55</ele>
        <time>2023-10-22T10:02:08Z</time>
      </trkpt>
      <trkpt lat="50.42685" lon="3.86931">
        <ele>60</ele>
        <time>2023-10-22T10:02:19Z</time>
      </trkpt>
      <trkpt lat="50.42665" lon="3.87016">
        <ele>69</ele>
        <time>2023-10-22T10:02:33Z</time>
      </trkpt>
      <trkpt lat="50.42644" lon="3.87086">
        <ele>74</ele>
        <time>2023-10-22T10:02:44Z</time>
      </trkpt>
      <trkpt lat="50.42624" lon="3.87135">
        <ele>75</ele>
        <time>2023-10-22T10:02:53Z</time>
      </trkpt>
      <trkpt lat="50.42644" lon="3.87153">
        <ele>77</ele>
        <time>2023-10-22T10:02:58Z</time>
      </trkpt>
      <trkpt lat="50.42688" lon="3.87175">
        <ele>75</ele>
        <time>2023-10-22T10:03:09Z</time>
      </trkpt>
      <trkpt lat="50.42713" lon="3.87198">
        <ele>70</ele>
        <time>2023-10-22T10:03:16Z</time>
      </trkpt>
      <trkpt lat="50.42742" lon="3.87236">
        <ele>64</ele>
        <time>2023-10-22T10:03:24Z</time>
      </trkpt>
      <trkpt lat="50.42799" lon="3.87239">
        <ele>56</ele>
        <time>2023-10-22T10:03:38Z</time>
      </trkpt>
      <trkpt lat="50.42822" lon="3.87255">
        <ele>54</ele>
        <time>2023-10-22T10:03:44Z</time>
      </trkpt>
      <trkpt lat="50.42836" lon="3.87257">
        <ele>53</ele>
        <time>2023-10-22T10:03:47Z</time>
      </trkpt>
      <trkpt lat="50.42873" lon="3.87229">
        <ele>53</ele>
        <time>2023-10-22T10:03:57Z</time>
      </trkpt>
      <trkpt lat="50.4293" lon="3.87162">
        <ele>52</ele>
        <time>2023-10-22T10:04:13Z</time>
      </trkpt>
      <trkpt lat="50.42957" lon="3.87136">
        <ele>53</ele>
        <time>2023-10-22T10:04:21Z</time>
      </trkpt>
      <trkpt lat="50.42958" lon="3.87115">
        <ele>52</ele>
        <time>2023-10-22T10:04:24Z</time>
      </trkpt>
      <trkpt lat="50.42951" lon="3.871">
        <ele>50</ele>
        <time>2023-10-22T10:04:26Z</time>
      </trkpt>
      <trkpt lat="50.42945" lon="3.87096">
        <ele>50</ele>
        <time>2023-10-22T10:04:28Z</time>
      </trkpt>
      <trkpt lat="50.42954" lon="3.87089">
        <ele>50</ele>
        <time>2023-10-22T10:04:30Z</time>
      </trkpt>
      <trkpt lat="50.42987" lon="3.87073">
        <ele>50</ele>
        <time>2023-10-22T10:04:38Z</time>
      </trkpt>
      <trkpt lat="50.43021" lon="3.87035">
        <ele>47</ele>
        <time>2023-10-22T10:04:48Z</time>
      </trkpt>
      <trkpt lat="50.43029" lon="3.8704">
        <ele>48</ele>
        <time>2023-10-22T10:04:50Z</time>
      </trkpt>
      <trkpt lat="50.4303" lon="3.87026">
        <ele>47</ele>
        <time>2023-10-22T10:04:52Z</time>
      </trkpt>
      <trkpt lat="50.43045" lon="3.86988">
        <ele>45</ele>
        <time>2023-10-22T10:04:59Z</time>
      </trkpt>
      <trkpt lat="50.4305" lon="3.86987">
        <ele>45</ele>
        <time>2023-10-22T10:05:00Z</time>
      </trkpt>
      <trkpt lat="50.43065" lon="3.86996">
        <ele>45</ele>
        <time>2023-10-22T10:05:04Z</time>
      </trkpt>
      <trkpt lat="50.43074" lon="3.86995">
        <ele>45</ele>
        <time>2023-10-22T10:05:06Z</time>
      </trkpt>
      <trkpt lat="50.43109" lon="3.86972">
        <ele>45</ele>
        <time>2023-10-22T10:05:15Z</time>
      </trkpt>
      <trkpt lat="50.43127" lon="3.8694">
        <ele>44</ele>
        <time>2023-10-22T10:05:21Z</time>
      </trkpt>
      <trkpt lat="50.43142" lon="3.86901">
        <ele>44</ele>
        <time>2023-10-22T10:05:28Z</time>
      </trkpt>
      <trkpt lat="50.43152" lon="3.86864">
        <ele>44</ele>
        <time>2023-10-22T10:05:34Z</time>
      </trkpt>
      <trkpt lat="50.4317" lon="3.86873">
        <ele>43</ele>
        <time>2023-10-22T10:05:38Z</time>
      </trkpt>
      <trkpt lat="50.43159" lon="3.86584">
        <ele>40</ele>
        <time>2023-10-22T10:06:21Z</time>
      </trkpt>
      <trkpt lat="50.43156" lon="3.86395">
        <ele>37</ele>
        <time>2023-10-22T10:06:50Z</time>
      </trkpt>
      <trkpt lat="50.4314" lon="3.86041">
        <ele>38</ele>
        <time>2023-10-22T10:07:42Z</time>
      </trkpt>
      <trkpt lat="50.43129" lon="3.85729">
        <ele>35</ele>
        <time>2023-10-22T10:08:29Z</time>
      </trkpt>
      <trkpt lat="50.43119" lon="3.85359">
        <ele>41</ele>
        <time>2023-10-22T10:09:24Z</time>
      </trkpt>
      <trkpt lat="50.43123" lon="3.85288">
        <ele>41</ele>
        <time>2023-10-22T10:09:34Z</time>
      </trkpt>
      <trkpt lat="50.4313" lon="3.85218">
        <ele>41</ele>
        <time>2023-10-22T10:09:45Z</time>
      </trkpt>
      <trkpt lat="50.43138" lon="3.85169">
        <ele>41</ele>
        <time>2023-10-22T10:09:53Z</time>
      </trkpt>
      <trkpt lat="50.43159" lon="3.8508">
        <ele>40</ele>
        <time>2023-10-22T10:10:07Z</time>
      </trkpt>
      <trkpt lat="50.43187" lon="3.85003">
        <ele>39</ele>
        <time>2023-10-22T10:10:20Z</time>
      </trkpt>
      <trkpt lat="50.43174" lon="3.85037">
        <ele>39</ele>
        <time>2023-10-22T10:10:26Z</time>
      </trkpt>
      <trkpt lat="50.43181" lon="3.85035">
        <ele>39</ele>
        <time>2023-10-22T10:10:27Z</time>
      </trkpt>
      <trkpt lat="50.43193" lon="3.85009">
        <ele>39</ele>
        <time>2023-10-22T10:10:32Z</time>
      </trkpt>
      <trkpt lat="50.43231" lon="3.84965">
        <ele>39</ele>
        <time>2023-10-22T10:10:43Z</time>
      </trkpt>
      <trkpt lat="50.43317" lon="3.84984">
        <ele>36</ele>
        <time>2023-10-22T10:11:04Z</time>
      </trkpt>
      <trkpt lat="50.43341" lon="3.84995">
        <ele>35</ele>
        <time>2023-10-22T10:11:09Z</time>
      </trkpt>
      <trkpt lat="50.43456" lon="3.85082">
        <ele>36</ele>
        <time>2023-10-22T10:11:39Z</time>
      </trkpt>
      <trkpt lat="50.43489" lon="3.85113">
        <ele>35</ele>
        <time>2023-10-22T10:11:48Z</time>
      </trkpt>
      <trkpt lat="50.43495" lon="3.85115">
        <ele>34</ele>
        <time>2023-10-22T10:11:50Z</time>
      </trkpt>
      <trkpt lat="50.43511" lon="3.85127">
        <ele>34</ele>
        <time>2023-10-22T10:11:54Z</time>
      </trkpt>
      <trkpt lat="50.43543" lon="3.85155">
        <ele>34</ele>
        <time>2023-10-22T10:12:02Z</time>
      </trkpt>
      <trkpt lat="50.43546" lon="3.85171">
        <ele>34</ele>
        <time>2023-10-22T10:12:05Z</time>
      </trkpt>
      <trkpt lat="50.4353" lon="3.85269">
        <ele>42</ele>
        <time>2023-10-22T10:12:20Z</time>
      </trkpt>
      <trkpt lat="50.43516" lon="3.85285">
        <ele>43</ele>
        <time>2023-10-22T10:12:24Z</time>
      </trkpt>
      <trkpt lat="50.43405" lon="3.85556">
        <ele>42</ele>
        <time>2023-10-22T10:13:12Z</time>
      </trkpt>
      <trkpt lat="50.43383" lon="3.85532">
        <ele>42</ele>
        <time>2023-10-22T10:13:18Z</time>
      </trkpt>
      <trkpt lat="50.4336" lon="3.85493">
        <ele>44</ele>
        <time>2023-10-22T10:13:26Z</time>
      </trkpt>
      <trkpt lat="50.43292" lon="3.85418">
        <ele>47</ele>
        <time>2023-10-22T10:13:45Z</time>
      </trkpt>
      <trkpt lat="50.4328" lon="3.854">
        <ele>47</ele>
        <time>2023-10-22T10:13:49Z</time>
      </trkpt>
      <trkpt lat="50.43254" lon="3.85332">
        <ele>46</ele>
        <time>2023-10-22T10:14:01Z</time>
      </trkpt>
      <trkpt lat="50.43227" lon="3.85293">
        <ele>44</ele>
        <time>2023-10-22T10:14:10Z</time>
      </trkpt>
      <trkpt lat="50.43234" lon="3.85247">
        <ele>45</ele>
        <time>2023-10-22T10:14:17Z</time>
      </trkpt>
      <trkpt lat="50.43232" lon="3.85212">
        <ele>44</ele>
        <time>2023-10-22T10:14:22Z</time>
      </trkpt>
      <trkpt lat="50.43267" lon="3.85199">
        <ele>47</ele>
        <time>2023-10-22T10:14:30Z</time>
      </trkpt>
      <trkpt lat="50.43296" lon="3.85175">
        <ele>48</ele>
        <time>2023-10-22T10:14:38Z</time>
      </trkpt>
      <trkpt lat="50.43348" lon="3.85164">
        <ele>50</ele>
        <time>2023-10-22T10:14:50Z</time>
      </trkpt>
      <trkpt lat="50.43384" lon="3.85141">
        <ele>49</ele>
        <time>2023-10-22T10:14:59Z</time>
      </trkpt>
      <trkpt lat="50.43401" lon="3.85104">
        <ele>44</ele>
        <time>2023-10-22T10:15:06Z</time>
      </trkpt>
      <trkpt lat="50.43392" lon="3.85083">
        <ele>42</ele>
        <time>2023-10-22T10:15:10Z</time>
      </trkpt>
      <trkpt lat="50.43324" lon="3.85032">
        <ele>39</ele>
        <time>2023-10-22T10:15:27Z</time>
      </trkpt>
      <trkpt lat="50.43253" lon="3.85009">
        <ele>41</ele>
        <time>2023-10-22T10:15:44Z</time>
      </trkpt>
      <trkpt lat="50.43222" lon="3.85015">
        <ele>40</ele>
        <time>2023-10-22T10:15:52Z</time>
      </trkpt>
      <trkpt lat="50.43216" lon="3.85019">
        <ele>40</ele>
        <time>2023-10-22T10:15:53Z</time>
      </trkpt>
      <trkpt lat="50.43227" lon="3.85051">
        <ele>42</ele>
        <time>2023-10-22T10:15:59Z</time>
      </trkpt>
      <trkpt lat="50.43257" lon="3.85051">
        <ele>43</ele>
        <time>2023-10-22T10:16:06Z</time>
      </trkpt>
      <trkpt lat="50.43271" lon="3.85095">
        <ele>44</ele>
        <time>2023-10-22T10:16:13Z</time>
      </trkpt>
      <trkpt lat="50.43271" lon="3.85129">
        <ele>45</ele>
        <time>2023-10-22T10:16:18Z</time>
      </trkpt>
      <trkpt lat="50.43253" lon="3.85157">
        <ele>44</ele>
        <time>2023-10-22T10:16:24Z</time>
      </trkpt>
      <trkpt lat="50.43233" lon="3.85163">
        <ele>43</ele>
        <time>2023-10-22T10:16:29Z</time>
      </trkpt>
      <trkpt lat="50.43225" lon="3.85093">
        <ele>43</ele>
        <time>2023-10-22T10:16:39Z</time>
      </trkpt>
      <trkpt lat="50.43222" lon="3.85085">
        <ele>43</ele>
        <time>2023-10-22T10:16:41Z</time>
      </trkpt>
      <trkpt lat="50.43204" lon="3.85061">
        <ele>41</ele>
        <time>2023-10-22T10:16:46Z</time>
      </trkpt>
      <trkpt lat="50.43184" lon="3.85042">
        <ele>40</ele>
        <time>2023-10-22T10:16:52Z</time>
      </trkpt>
      <trkpt lat="50.43175" lon="3.85037">
        <ele>39</ele>
        <time>2023-10-22T10:16:54Z</time>
      </trkpt>
      <trkpt lat="50.43159" lon="3.85081">
        <ele>40</ele>
        <time>2023-10-22T10:17:01Z</time>
      </trkpt>
      <trkpt lat="50.43138" lon="3.85169">
        <ele>41</ele>
        <time>2023-10-22T10:17:15Z</time>
      </trkpt>
      <trkpt lat="50.4313" lon="3.85218">
        <ele>41</ele>
        <time>2023-10-22T10:17:23Z</time>
      </trkpt>
      <trkpt lat="50.43137" lon="3.85225">
        <ele>41</ele>
        <time>2023-10-22T10:17:25Z</time>
      </trkpt>
      <trkpt lat="50.43141" lon="3.85244">
        <ele>40</ele>
        <time>2023-10-22T10:17:28Z</time>
      </trkpt>
      <trkpt lat="50.43138" lon="3.85252">
        <ele>40</ele>
        <time>2023-10-22T10:17:29Z</time>
      </trkpt>
      <trkpt lat="50.4313" lon="3.8547">
        <ele>40</ele>
        <time>2023-10-22T10:18:02Z</time>
      </trkpt>
      <trkpt lat="50.43127" lon="3.85475">
        <ele>40</ele>
        <time>2023-10-22T10:18:03Z</time>
      </trkpt>
      <trkpt lat="50.43113" lon="3.85457">
        <ele>41</ele>
        <time>2023-10-22T10:18:07Z</time>
      </trkpt>
      <trkpt lat="50.43114" lon="3.85532">
        <ele>40</ele>
        <time>2023-10-22T10:18:18Z</time>
      </trkpt>
      <trkpt lat="50.43029" lon="3.8548">
        <ele>45</ele>
        <time>2023-10-22T10:18:39Z</time>
      </trkpt>
      <trkpt lat="50.42997" lon="3.85631">
        <ele>40</ele>
        <time>2023-10-22T10:19:03Z</time>
      </trkpt>
      <trkpt lat="50.42996" lon="3.85651">
        <ele>39</ele>
        <time>2023-10-22T10:19:06Z</time>
      </trkpt>
      <trkpt lat="50.43045" lon="3.85676">
        <ele>37</ele>
        <time>2023-10-22T10:19:18Z</time>
      </trkpt>
      <trkpt lat="50.43137" lon="3.85745">
        <ele>35</ele>
        <time>2023-10-22T10:19:42Z</time>
      </trkpt>
      <trkpt lat="50.43218" lon="3.85787">
        <ele>35</ele>
        <time>2023-10-22T10:20:02Z</time>
      </trkpt>
      <trkpt lat="50.43238" lon="3.85801">
        <ele>35</ele>
        <time>2023-10-22T10:20:07Z</time>
      </trkpt>
      <trkpt lat="50.43297" lon="3.8587">
        <ele>35</ele>
        <time>2023-10-22T10:20:24Z</time>
      </trkpt>
      <trkpt lat="50.4332" lon="3.85887">
        <ele>35</ele>
        <time>2023-10-22T10:20:30Z</time>
      </trkpt>
      <trkpt lat="50.43309" lon="3.85953">
        <ele>35</ele>
        <time>2023-10-22T10:20:40Z</time>
      </trkpt>
      <trkpt lat="50.43261" lon="3.86144">
        <ele>37</ele>
        <time>2023-10-22T10:21:11Z</time>
      </trkpt>
      <trkpt lat="50.43374" lon="3.86267">
        <ele>36</ele>
        <time>2023-10-22T10:21:43Z</time>
      </trkpt>
      <trkpt lat="50.43425" lon="3.86311">
        <ele>36</ele>
        <time>2023-10-22T10:21:56Z</time>
      </trkpt>
      <trkpt lat="50.43428" lon="3.86331">
        <ele>37</ele>
        <time>2023-10-22T10:21:59Z</time>
      </trkpt>
      <trkpt lat="50.43416" lon="3.86331">
        <ele>37</ele>
        <time>2023-10-22T10:22:02Z</time>
      </trkpt>
      <trkpt lat="50.43405" lon="3.86396">
        <ele>38</ele>
        <time>2023-10-22T10:22:12Z</time>
      </trkpt>
      <trkpt lat="50.43374" lon="3.86511">
        <ele>39</ele>
        <time>2023-10-22T10:22:31Z</time>
      </trkpt>
      <trkpt lat="50.43347" lon="3.86812">
        <ele>41</ele>
        <time>2023-10-22T10:23:16Z</time>
      </trkpt>
      <trkpt lat="50.43317" lon="3.86929">
        <ele>42</ele>
        <time>2023-10-22T10:23:35Z</time>
      </trkpt>
      <trkpt lat="50.43316" lon="3.86947">
        <ele>42</ele>
        <time>2023-10-22T10:23:37Z</time>
      </trkpt>
      <trkpt lat="50.43269" lon="3.87076">
        <ele>43</ele>
        <time>2023-10-22T10:24:00Z</time>
      </trkpt>
      <trkpt lat="50.43185" lon="3.87183">
        <ele>44</ele>
        <time>2023-10-22T10:24:25Z</time>
      </trkpt>
      <trkpt lat="50.43193" lon="3.87358">
        <ele>46</ele>
        <time>2023-10-22T10:24:51Z</time>
      </trkpt>
      <trkpt lat="50.43183" lon="3.87378">
        <ele>47</ele>
        <time>2023-10-22T10:24:55Z</time>
      </trkpt>
      <trkpt lat="50.43174" lon="3.87359">
        <ele>47</ele>
        <time>2023-10-22T10:24:58Z</time>
      </trkpt>
      <trkpt lat="50.43171" lon="3.87328">
        <ele>48</ele>
        <time>2023-10-22T10:25:03Z</time>
      </trkpt>
      <trkpt lat="50.43175" lon="3.8733">
        <ele>47</ele>
        <time>2023-10-22T10:25:04Z</time>
      </trkpt>
      <trkpt lat="50.43201" lon="3.87379">
        <ele>45</ele>
        <time>2023-10-22T10:25:13Z</time>
      </trkpt>
      <trkpt lat="50.43203" lon="3.8739">
        <ele>45</ele>
        <time>2023-10-22T10:25:15Z</time>
      </trkpt>
      <trkpt lat="50.43199" lon="3.87419">
        <ele>45</ele>
        <time>2023-10-22T10:25:19Z</time>
      </trkpt>
      <trkpt lat="50.43201" lon="3.87427">
        <ele>45</ele>
        <time>2023-10-22T10:25:21Z</time>
      </trkpt>
      <trkpt lat="50.43203" lon="3.8743">
        <ele>45</ele>
        <time>2023-10-22T10:25:21Z</time>
      </trkpt>
      <trkpt lat="50.43224" lon="3.87436">
        <ele>43</ele>
        <time>2023-10-22T10:25:26Z</time>
      </trkpt>
      <trkpt lat="50.43242" lon="3.87462">
        <ele>43</ele>
        <time>2023-10-22T10:25:32Z</time>
      </trkpt>
      <trkpt lat="50.43266" lon="3.87477">
        <ele>44</ele>
        <time>2023-10-22T10:25:38Z</time>
      </trkpt>
      <trkpt lat="50.43276" lon="3.8745">
        <ele>44</ele>
        <time>2023-10-22T10:25:43Z</time>
      </trkpt>
      <trkpt lat="50.43306" lon="3.87457">
        <ele>46</ele>
        <time>2023-10-22T10:25:50Z</time>
      </trkpt>
      <trkpt lat="50.43447" lon="3.87534">
        <ele>52</ele>
        <time>2023-10-22T10:26:25Z</time>
      </trkpt>
      <trkpt lat="50.43423" lon="3.87531">
        <ele>53</ele>
        <time>2023-10-22T10:26:30Z</time>
      </trkpt>
      <trkpt lat="50.43409" lon="3.87546">
        <ele>55</ele>
        <time>2023-10-22T10:26:34Z</time>
      </trkpt>
      <trkpt lat="50.43407" lon="3.87566">
        <ele>56</ele>
        <time>2023-10-22T10:26:37Z</time>
      </trkpt>
      <trkpt lat="50.43393" lon="3.87544">
        <ele>55</ele>
        <time>2023-10-22T10:26:42Z</time>
      </trkpt>
      <trkpt lat="50.43373" lon="3.87536">
        <ele>54</ele>
        <time>2023-10-22T10:26:47Z</time>
      </trkpt>
      <trkpt lat="50.43352" lon="3.87538">
        <ele>54</ele>
        <time>2023-10-22T10:26:52Z</time>
      </trkpt>
      <trkpt lat="50.43319" lon="3.87555">
        <ele>54</ele>
        <time>2023-10-22T10:27:00Z</time>
      </trkpt>
      <trkpt lat="50.43311" lon="3.87603">
        <ele>54</ele>
        <time>2023-10-22T10:27:07Z</time>
      </trkpt>
      <trkpt lat="50.43299" lon="3.87652">
        <ele>53</ele>
        <time>2023-10-22T10:27:15Z</time>
      </trkpt>
      <trkpt lat="50.43311" lon="3.87699">
        <ele>55</ele>
        <time>2023-10-22T10:27:22Z</time>
      </trkpt>
      <trkpt lat="50.43315" lon="3.87732">
        <ele>55</ele>
        <time>2023-10-22T10:27:27Z</time>
      </trkpt>
      <trkpt lat="50.43345" lon="3.87773">
        <ele>58</ele>
        <time>2023-10-22T10:27:37Z</time>
      </trkpt>
      <trkpt lat="50.43366" lon="3.87794">
        <ele>60</ele>
        <time>2023-10-22T10:27:43Z</time>
      </trkpt>
      <trkpt lat="50.43463" lon="3.8787">
        <ele>64</ele>
        <time>2023-10-22T10:28:08Z</time>
      </trkpt>
      <trkpt lat="50.43578" lon="3.87946">
        <ele>64</ele>
        <time>2023-10-22T10:28:37Z</time>
      </trkpt>
      <trkpt lat="50.43503" lon="3.88265">
        <ele>64</ele>
        <time>2023-10-22T10:29:28Z</time>
      </trkpt>
      <trkpt lat="50.4347" lon="3.88423">
        <ele>62</ele>
        <time>2023-10-22T10:29:52Z</time>
      </trkpt>
      <trkpt lat="50.43364" lon="3.88434">
        <ele>58</ele>
        <time>2023-10-22T10:30:17Z</time>
      </trkpt>
      <trkpt lat="50.43227" lon="3.88429">
        <ele>54</ele>
        <time>2023-10-22T10:30:49Z</time>
      </trkpt>
      <trkpt lat="50.432" lon="3.88432">
        <ele>54</ele>
        <time>2023-10-22T10:30:55Z</time>
      </trkpt>
      <trkpt lat="50.43181" lon="3.8844">
        <ele>53</ele>
        <time>2023-10-22T10:31:00Z</time>
      </trkpt>
      <trkpt lat="50.43134" lon="3.88454">
        <ele>53</ele>
        <time>2023-10-22T10:31:11Z</time>
      </trkpt>
      <trkpt lat="50.43128" lon="3.8846">
        <ele>54</ele>
        <time>2023-10-22T10:31:13Z</time>
      </trkpt>
      <trkpt lat="50.43122" lon="3.88473">
        <ele>54</ele>
        <time>2023-10-22T10:31:15Z</time>
      </trkpt>
      <trkpt lat="50.43106" lon="3.88637">
        <ele>54</ele>
        <time>2023-10-22T10:31:40Z</time>
      </trkpt>
      <trkpt lat="50.43098" lon="3.88644">
        <ele>55</ele>
        <time>2023-10-22T10:31:42Z</time>
      </trkpt>
      <trkpt lat="50.43093" lon="3.88642">
        <ele>55</ele>
        <time>2023-10-22T10:31:43Z</time>
      </trkpt>
      <trkpt lat="50.43089" lon="3.88644">
        <ele>55</ele>
        <time>2023-10-22T10:31:44Z</time>
      </trkpt>
      <trkpt lat="50.43099" lon="3.88553">
        <ele>54</ele>
        <time>2023-10-22T10:31:58Z</time>
      </trkpt>
      <trkpt lat="50.43167" lon="3.87771">
        <ele>43</ele>
        <time>2023-10-22T10:33:55Z</time>
      </trkpt>
      <trkpt lat="50.43186" lon="3.87535">
        <ele>45</ele>
        <time>2023-10-22T10:34:31Z</time>
      </trkpt>
      <trkpt lat="50.43189" lon="3.87419">
        <ele>46</ele>
        <time>2023-10-22T10:34:48Z</time>
      </trkpt>
      <trkpt lat="50.43193" lon="3.87377">
        <ele>46</ele>
        <time>2023-10-22T10:34:54Z</time>
      </trkpt>
      <trkpt lat="50.43189" lon="3.87419">
        <ele>46</ele>
        <time>2023-10-22T10:35:01Z</time>
      </trkpt>
      <trkpt lat="50.43186" lon="3.87535">
        <ele>45</ele>
        <time>2023-10-22T10:35:18Z</time>
      </trkpt>
      <trkpt lat="50.43099" lon="3.88553">
        <ele>54</ele>
        <time>2023-10-22T10:37:51Z</time>
      </trkpt>
      <trkpt lat="50.43056" lon="3.8896">
        <ele>60</ele>
        <time>2023-10-22T10:38:52Z</time>
      </trkpt>
      <trkpt lat="50.43051" lon="3.88981">
        <ele>61</ele>
        <time>2023-10-22T10:38:56Z</time>
      </trkpt>
      <trkpt lat="50.43048" lon="3.89009">
        <ele>62</ele>
        <time>2023-10-22T10:39:00Z</time>
      </trkpt>
      <trkpt lat="50.43044" lon="3.89069">
        <ele>66</ele>
        <time>2023-10-22T10:39:09Z</time>
      </trkpt>
      <trkpt lat="50.43057" lon="3.89102">
        <ele>70</ele>
        <time>2023-10-22T10:39:14Z</time>
      </trkpt>
      <trkpt lat="50.43056" lon="3.89116">
        <ele>71</ele>
        <time>2023-10-22T10:39:17Z</time>
      </trkpt>
      <trkpt lat="50.43049" lon="3.89137">
        <ele>71</ele>
        <time>2023-10-22T10:39:20Z</time>
      </trkpt>
      <trkpt lat="50.43047" lon="3.89212">
        <ele>74</ele>
        <time>2023-10-22T10:39:31Z</time>
      </trkpt>
      <trkpt lat="50.43053" lon="3.89239">
        <ele>76</ele>
        <time>2023-10-22T10:39:36Z</time>
      </trkpt>
      <trkpt lat="50.43062" lon="3.89263">
        <ele>78</ele>
        <time>2023-10-22T10:39:40Z</time>
      </trkpt>
      <trkpt lat="50.4306" lon="3.89297">
        <ele>78</ele>
        <time>2023-10-22T10:39:45Z</time>
      </trkpt>
      <trkpt lat="50.43067" lon="3.89329">
        <ele>80</ele>
        <time>2023-10-22T10:39:50Z</time>
      </trkpt>
      <trkpt lat="50.43066" lon="3.89366">
        <ele>78</ele>
        <time>2023-10-22T10:39:55Z</time>
      </trkpt>
      <trkpt lat="50.43068" lon="3.89398">
        <ele>77</ele>
        <time>2023-10-22T10:40:00Z</time>
      </trkpt>
      <trkpt lat="50.43075" lon="3.89419">
        <ele>77</ele>
        <time>2023-10-22T10:40:04Z</time>
      </trkpt>
      <trkpt lat="50.43089" lon="3.8944">
        <ele>77</ele>
        <time>2023-10-22T10:40:08Z</time>
      </trkpt>
      <trkpt lat="50.43099" lon="3.89468">
        <ele>77</ele>
        <time>2023-10-22T10:40:13Z</time>
      </trkpt>
      <trkpt lat="50.43106" lon="3.89497">
        <ele>75</ele>
        <time>2023-10-22T10:40:18Z</time>
      </trkpt>
      <trkpt lat="50.43118" lon="3.89523">
        <ele>75</ele>
        <time>2023-10-22T10:40:22Z</time>
      </trkpt>
      <trkpt lat="50.43135" lon="3.89571">
        <ele>72</ele>
        <time>2023-10-22T10:40:30Z</time>
      </trkpt>
      <trkpt lat="50.43143" lon="3.89583">
        <ele>72</ele>
        <time>2023-10-22T10:40:33Z</time>
      </trkpt>
      <trkpt lat="50.43182" lon="3.89611">
        <ele>74</ele>
        <time>2023-10-22T10:40:43Z</time>
      </trkpt>
      <trkpt lat="50.43192" lon="3.89602">
        <ele>75</ele>
        <time>2023-10-22T10:40:46Z</time>
      </trkpt>
      <trkpt lat="50.43202" lon="3.89598">
        <ele>76</ele>
        <time>2023-10-22T10:40:48Z</time>
      </trkpt>
      <trkpt lat="50.43225" lon="3.89602">
        <ele>78</ele>
        <time>2023-10-22T10:40:54Z</time>
      </trkpt>
      <trkpt lat="50.43244" lon="3.89601">
        <ele>80</ele>
        <time>2023-10-22T10:40:58Z</time>
      </trkpt>
      <trkpt lat="50.43241" lon="3.89617">
        <ele>80</ele>
        <time>2023-10-22T10:41:00Z</time>
      </trkpt>
      <trkpt lat="50.43234" lon="3.89627">
        <ele>80</ele>
        <time>2023-10-22T10:41:03Z</time>
      </trkpt>
      <trkpt lat="50.43232" lon="3.89643">
        <ele>80</ele>
        <time>2023-10-22T10:41:05Z</time>
      </trkpt>
      <trkpt lat="50.4321" lon="3.8968">
        <ele>77</ele>
        <time>2023-10-22T10:41:13Z</time>
      </trkpt>
      <trkpt lat="50.43202" lon="3.89704">
        <ele>75</ele>
        <time>2023-10-22T10:41:17Z</time>
      </trkpt>
      <trkpt lat="50.43202" lon="3.89727">
        <ele>74</ele>
        <time>2023-10-22T10:41:20Z</time>
      </trkpt>
      <trkpt lat="50.43208" lon="3.89744">
        <ele>74</ele>
        <time>2023-10-22T10:41:23Z</time>
      </trkpt>
      <trkpt lat="50.43218" lon="3.89755">
        <ele>75</ele>
        <time>2023-10-22T10:41:26Z</time>
      </trkpt>
      <trkpt lat="50.4323" lon="3.8978">
        <ele>74</ele>
        <time>2023-10-22T10:41:30Z</time>
      </trkpt>
      <trkpt lat="50.43227" lon="3.8979">
        <ele>72</ele>
        <time>2023-10-22T10:41:32Z</time>
      </trkpt>
      <trkpt lat="50.43267" lon="3.89802">
        <ele>72</ele>
        <time>2023-10-22T10:41:42Z</time>
      </trkpt>
      <trkpt lat="50.43359" lon="3.89764">
        <ele>72</ele>
        <time>2023-10-22T10:42:04Z</time>
      </trkpt>
      <trkpt lat="50.43402" lon="3.8975">
        <ele>68</ele>
        <time>2023-10-22T10:42:14Z</time>
      </trkpt>
      <trkpt lat="50.43402" lon="3.89775">
        <ele>67</ele>
        <time>2023-10-22T10:42:18Z</time>
      </trkpt>
      <trkpt lat="50.43409" lon="3.89843">
        <ele>65</ele>
        <time>2023-10-22T10:42:28Z</time>
      </trkpt>
      <trkpt lat="50.43446" lon="3.89869">
        <ele>75</ele>
        <time>2023-10-22T10:42:38Z</time>
      </trkpt>
      <trkpt lat="50.4346" lon="3.89825">
        <ele>76</ele>
        <time>2023-10-22T10:42:45Z</time>
      </trkpt>
      <trkpt lat="50.4347" lon="3.89811">
        <ele>77</ele>
        <time>2023-10-22T10:42:48Z</time>
      </trkpt>
      <trkpt lat="50.43486" lon="3.89776">
        <ele>75</ele>
        <time>2023-10-22T10:42:54Z</time>
      </trkpt>
      <trkpt lat="50.43505" lon="3.89765">
        <ele>76</ele>
        <time>2023-10-22T10:42:59Z</time>
      </trkpt>
      <trkpt lat="50.43523" lon="3.89751">
        <ele>78</ele>
        <time>2023-10-22T10:43:04Z</time>
      </trkpt>
      <trkpt lat="50.43549" lon="3.89716">
        <ele>78</ele>
        <time>2023-10-22T10:43:12Z</time>
      </trkpt>
      <trkpt lat="50.43573" lon="3.89701">
        <ele>80</ele>
        <time>2023-10-22T10:43:18Z</time>
      </trkpt>
      <trkpt lat="50.43589" lon="3.897">
        <ele>82</ele>
        <time>2023-10-22T10:43:22Z</time>
      </trkpt>
      <trkpt lat="50.43621" lon="3.89671">
        <ele>75</ele>
        <time>2023-10-22T10:43:30Z</time>
      </trkpt>
      <trkpt lat="50.43631" lon="3.89669">
        <ele>74</ele>
        <time>2023-10-22T10:43:33Z</time>
      </trkpt>
      <trkpt lat="50.43659" lon="3.89707">
        <ele>81</ele>
        <time>2023-10-22T10:43:41Z</time>
      </trkpt>
      <trkpt lat="50.43675" lon="3.8975">
        <ele>86</ele>
        <time>2023-10-22T10:43:49Z</time>
      </trkpt>
      <trkpt lat="50.43706" lon="3.89781">
        <ele>81</ele>
        <time>2023-10-22T10:43:57Z</time>
      </trkpt>
      <trkpt lat="50.43726" lon="3.89813">
        <ele>77</ele>
        <time>2023-10-22T10:44:04Z</time>
      </trkpt>
      <trkpt lat="50.43749" lon="3.89864">
        <ele>72</ele>
        <time>2023-10-22T10:44:13Z</time>
      </trkpt>
      <trkpt lat="50.43761" lon="3.89938">
        <ele>76</ele>
        <time>2023-10-22T10:44:25Z</time>
      </trkpt>
      <trkpt lat="50.43764" lon="3.90033">
        <ele>77</ele>
        <time>2023-10-22T10:44:39Z</time>
      </trkpt>
      <trkpt lat="50.43768" lon="3.90065">
        <ele>76</ele>
        <time>2023-10-22T10:44:44Z</time>
      </trkpt>
      <trkpt lat="50.43759" lon="3.90149">
        <ele>79</ele>
        <time>2023-10-22T10:44:56Z</time>
      </trkpt>
      <trkpt lat="50.43756" lon="3.90157">
        <ele>80</ele>
        <time>2023-10-22T10:44:58Z</time>
      </trkpt>
      <trkpt lat="50.4376" lon="3.90171">
        <ele>79</ele>
        <time>2023-10-22T10:45:00Z</time>
      </trkpt>
      <trkpt lat="50.43775" lon="3.90197">
        <ele>76</ele>
        <time>2023-10-22T10:45:05Z</time>
      </trkpt>
      <trkpt lat="50.43778" lon="3.90218">
        <ele>76</ele>
        <time>2023-10-22T10:45:08Z</time>
      </trkpt>
      <trkpt lat="50.43781" lon="3.9028">
        <ele>74</ele>
        <time>2023-10-22T10:45:18Z</time>
      </trkpt>
      <trkpt lat="50.43776" lon="3.90421">
        <ele>67</ele>
        <time>2023-10-22T10:45:39Z</time>
      </trkpt>
      <trkpt lat="50.43763" lon="3.90442">
        <ele>67</ele>
        <time>2023-10-22T10:45:43Z</time>
      </trkpt>
      <trkpt lat="50.43742" lon="3.90466">
        <ele>68</ele>
        <time>2023-10-22T10:45:49Z</time>
      </trkpt>
      <trkpt lat="50.43719" lon="3.90523">
        <ele>68</ele>
        <time>2023-10-22T10:45:59Z</time>
      </trkpt>
      <trkpt lat="50.43695" lon="3.90561">
        <ele>68</ele>
        <time>2023-10-22T10:46:07Z</time>
      </trkpt>
      <trkpt lat="50.43669" lon="3.90572">
        <ele>69</ele>
        <time>2023-10-22T10:46:13Z</time>
      </trkpt>
      <trkpt lat="50.43646" lon="3.90576">
        <ele>68</ele>
        <time>2023-10-22T10:46:19Z</time>
      </trkpt>
      <trkpt lat="50.43619" lon="3.90574">
        <ele>67</ele>
        <time>2023-10-22T10:46:25Z</time>
      </trkpt>
      <trkpt lat="50.43608" lon="3.90571">
        <ele>67</ele>
        <time>2023-10-22T10:46:28Z</time>
      </trkpt>
      <trkpt lat="50.43606" lon="3.90582">
        <ele>66</ele>
        <time>2023-10-22T10:46:29Z</time>
      </trkpt>
      <trkpt lat="50.43588" lon="3.90603">
        <ele>65</ele>
        <time>2023-10-22T10:46:35Z</time>
      </trkpt>
      <trkpt lat="50.4357" lon="3.90661">
        <ele>63</ele>
        <time>2023-10-22T10:46:44Z</time>
      </trkpt>
      <trkpt lat="50.43571" lon="3.907">
        <ele>62</ele>
        <time>2023-10-22T10:46:50Z</time>
      </trkpt>
      <trkpt lat="50.43565" lon="3.90699">
        <ele>62</ele>
        <time>2023-10-22T10:46:51Z</time>
      </trkpt>
      <trkpt lat="50.43547" lon="3.90709">
        <ele>62</ele>
        <time>2023-10-22T10:46:56Z</time>
      </trkpt>
      <trkpt lat="50.43511" lon="3.90677">
        <ele>62</ele>
        <time>2023-10-22T10:47:05Z</time>
      </trkpt>
      <trkpt lat="50.43466" lon="3.90609">
        <ele>62</ele>
        <time>2023-10-22T10:47:20Z</time>
      </trkpt>
      <trkpt lat="50.43442" lon="3.90564">
        <ele>61</ele>
        <time>2023-10-22T10:47:29Z</time>
      </trkpt>
      <trkpt lat="50.43415" lon="3.90488">
        <ele>60</ele>
        <time>2023-10-22T10:47:42Z</time>
      </trkpt>
      <trkpt lat="50.43405" lon="3.90452">
        <ele>60</ele>
        <time>2023-10-22T10:47:48Z</time>
      </trkpt>
      <trkpt lat="50.43397" lon="3.90456">
        <ele>61</ele>
        <time>2023-10-22T10:47:50Z</time>
      </trkpt>
      <trkpt lat="50.43392" lon="3.90426">
        <ele>61</ele>
        <time>2023-10-22T10:47:54Z</time>
      </trkpt>
      <trkpt lat="50.43385" lon="3.90404">
        <ele>61</ele>
        <time>2023-10-22T10:47:58Z</time>
      </trkpt>
      <trkpt lat="50.43385" lon="3.90392">
        <ele>61</ele>
        <time>2023-10-22T10:48:00Z</time>
      </trkpt>
      <trkpt lat="50.43379" lon="3.90361">
        <ele>61</ele>
        <time>2023-10-22T10:48:04Z</time>
      </trkpt>
      <trkpt lat="50.43374" lon="3.90352">
        <ele>61</ele>
        <time>2023-10-22T10:48:06Z</time>
      </trkpt>
      <trkpt lat="50.43358" lon="3.90302">
        <ele>60</ele>
        <time>2023-10-22T10:48:14Z</time>
      </trkpt>
      <trkpt lat="50.43354" lon="3.90296">
        <ele>60</ele>
        <time>2023-10-22T10:48:16Z</time>
      </trkpt>
      <trkpt lat="50.43351" lon="3.90274">
        <ele>60</ele>
        <time>2023-10-22T10:48:19Z</time>
      </trkpt>
      <trkpt lat="50.43341" lon="3.90262">
        <ele>60</ele>
        <time>2023-10-22T10:48:22Z</time>
      </trkpt>
      <trkpt lat="50.43319" lon="3.90199">
        <ele>60</ele>
        <time>2023-10-22T10:48:33Z</time>
      </trkpt>
      <trkpt lat="50.43308" lon="3.90187">
        <ele>60</ele>
        <time>2023-10-22T10:48:36Z</time>
      </trkpt>
      <trkpt lat="50.43291" lon="3.90134">
        <ele>61</ele>
        <time>2023-10-22T10:48:45Z</time>
      </trkpt>
      <trkpt lat="50.43292" lon="3.90123">
        <ele>61</ele>
        <time>2023-10-22T10:48:46Z</time>
      </trkpt>
      <trkpt lat="50.43289" lon="3.90111">
        <ele>61</ele>
        <time>2023-10-22T10:48:48Z</time>
      </trkpt>
      <trkpt lat="50.43285" lon="3.90102">
        <ele>61</ele>
        <time>2023-10-22T10:48:50Z</time>
      </trkpt>
      <trkpt lat="50.43272" lon="3.90088">
        <ele>61</ele>
        <time>2023-10-22T10:48:54Z</time>
      </trkpt>
      <trkpt lat="50.43249" lon="3.9002">
        <ele>63</ele>
        <time>2023-10-22T10:49:05Z</time>
      </trkpt>
      <trkpt lat="50.43245" lon="3.90005">
        <ele>63</ele>
        <time>2023-10-22T10:49:07Z</time>
      </trkpt>
      <trkpt lat="50.43246" lon="3.89989">
        <ele>63</ele>
        <time>2023-10-22T10:49:10Z</time>
      </trkpt>
      <trkpt lat="50.43242" lon="3.89983">
        <ele>63</ele>
        <time>2023-10-22T10:49:11Z</time>
      </trkpt>
      <trkpt lat="50.43234" lon="3.89979">
        <ele>63</ele>
        <time>2023-10-22T10:49:13Z</time>
      </trkpt>
      <trkpt lat="50.4322" lon="3.89952">
        <ele>64</ele>
        <time>2023-10-22T10:49:18Z</time>
      </trkpt>
      <trkpt lat="50.43216" lon="3.89933">
        <ele>64</ele>
        <time>2023-10-22T10:49:21Z</time>
      </trkpt>
      <trkpt lat="50.43211" lon="3.89923">
        <ele>64</ele>
        <time>2023-10-22T10:49:23Z</time>
      </trkpt>
      <trkpt lat="50.43213" lon="3.89913">
        <ele>64</ele>
        <time>2023-10-22T10:49:25Z</time>
      </trkpt>
      <trkpt lat="50.43209" lon="3.89874">
        <ele>66</ele>
        <time>2023-10-22T10:49:31Z</time>
      </trkpt>
      <trkpt lat="50.43205" lon="3.89866">
        <ele>66</ele>
        <time>2023-10-22T10:49:32Z</time>
      </trkpt>
      <trkpt lat="50.43183" lon="3.89841">
        <ele>66</ele>
        <time>2023-10-22T10:49:38Z</time>
      </trkpt>
      <trkpt lat="50.43166" lon="3.89804">
        <ele>66</ele>
        <time>2023-10-22T10:49:45Z</time>
      </trkpt>
      <trkpt lat="50.43159" lon="3.89801">
        <ele>66</ele>
        <time>2023-10-22T10:49:47Z</time>
      </trkpt>
      <trkpt lat="50.43162" lon="3.89793">
        <ele>67</ele>
        <time>2023-10-22T10:49:48Z</time>
      </trkpt>
      <trkpt lat="50.43156" lon="3.89793">
        <ele>67</ele>
        <time>2023-10-22T10:49:50Z</time>
      </trkpt>
      <trkpt lat="50.43152" lon="3.89779">
        <ele>67</ele>
        <time>2023-10-22T10:49:52Z</time>
      </trkpt>
      <trkpt lat="50.43149" lon="3.89778">
        <ele>67</ele>
        <time>2023-10-22T10:49:53Z</time>
      </trkpt>
      <trkpt lat="50.43174" lon="3.89851">
        <ele>65</ele>
        <time>2023-10-22T10:50:05Z</time>
      </trkpt>
      <trkpt lat="50.43337" lon="3.90282">
        <ele>60</ele>
        <time>2023-10-22T10:51:20Z</time>
      </trkpt>
      <trkpt lat="50.43368" lon="3.90373">
        <ele>61</ele>
        <time>2023-10-22T10:51:35Z</time>
      </trkpt>
      <trkpt lat="50.43387" lon="3.9046">
        <ele>61</ele>
        <time>2023-10-22T10:51:49Z</time>
      </trkpt>
      <trkpt lat="50.43381" lon="3.90467">
        <ele>61</ele>
        <time>2023-10-22T10:51:50Z</time>
      </trkpt>
      <trkpt lat="50.4339" lon="3.905">
        <ele>61</ele>
        <time>2023-10-22T10:51:56Z</time>
      </trkpt>
      <trkpt lat="50.4339" lon="3.90536">
        <ele>62</ele>
        <time>2023-10-22T10:52:01Z</time>
      </trkpt>
      <trkpt lat="50.43395" lon="3.90553">
        <ele>62</ele>
        <time>2023-10-22T10:52:04Z</time>
      </trkpt>
      <trkpt lat="50.43394" lon="3.90564">
        <ele>62</ele>
        <time>2023-10-22T10:52:06Z</time>
      </trkpt>
      <trkpt lat="50.43399" lon="3.90623">
        <ele>63</ele>
        <time>2023-10-22T10:52:14Z</time>
      </trkpt>
      <trkpt lat="50.43395" lon="3.90635">
        <ele>63</ele>
        <time>2023-10-22T10:52:16Z</time>
      </trkpt>
      <trkpt lat="50.43397" lon="3.9065">
        <ele>63</ele>
        <time>2023-10-22T10:52:19Z</time>
      </trkpt>
      <trkpt lat="50.43394" lon="3.90671">
        <ele>63</ele>
        <time>2023-10-22T10:52:22Z</time>
      </trkpt>
      <trkpt lat="50.43397" lon="3.90688">
        <ele>64</ele>
        <time>2023-10-22T10:52:24Z</time>
      </trkpt>
      <trkpt lat="50.43393" lon="3.90706">
        <ele>64</ele>
        <time>2023-10-22T10:52:27Z</time>
      </trkpt>
      <trkpt lat="50.43392" lon="3.90757">
        <ele>64</ele>
        <time>2023-10-22T10:52:35Z</time>
      </trkpt>
      <trkpt lat="50.43389" lon="3.90777">
        <ele>63</ele>
        <time>2023-10-22T10:52:38Z</time>
      </trkpt>
      <trkpt lat="50.43382" lon="3.9079">
        <ele>63</ele>
        <time>2023-10-22T10:52:40Z</time>
      </trkpt>
      <trkpt lat="50.43385" lon="3.90822">
        <ele>63</ele>
        <time>2023-10-22T10:52:45Z</time>
      </trkpt>
      <trkpt lat="50.43378" lon="3.90862">
        <ele>62</ele>
        <time>2023-10-22T10:52:51Z</time>
      </trkpt>
      <trkpt lat="50.43368" lon="3.90889">
        <ele>61</ele>
        <time>2023-10-22T10:52:56Z</time>
      </trkpt>
      <trkpt lat="50.43368" lon="3.90906">
        <ele>61</ele>
        <time>2023-10-22T10:52:59Z</time>
      </trkpt>
      <trkpt lat="50.43364" lon="3.90912">
        <ele>61</ele>
        <time>2023-10-22T10:53:00Z</time>
      </trkpt>
      <trkpt lat="50.43364" lon="3.90923">
        <ele>61</ele>
        <time>2023-10-22T10:53:02Z</time>
      </trkpt>
      <trkpt lat="50.43367" lon="3.90928">
        <ele>61</ele>
        <time>2023-10-22T10:53:03Z</time>
      </trkpt>
      <trkpt lat="50.43342" lon="3.91002">
        <ele>60</ele>
        <time>2023-10-22T10:53:15Z</time>
      </trkpt>
      <trkpt lat="50.43295" lon="3.91108">
        <ele>55</ele>
        <time>2023-10-22T10:53:34Z</time>
      </trkpt>
      <trkpt lat="50.43182" lon="3.9129">
        <ele>50</ele>
        <time>2023-10-22T10:54:12Z</time>
      </trkpt>
      <trkpt lat="50.42694" lon="3.92098">
        <ele>51</ele>
        <time>2023-10-22T10:56:58Z</time>
      </trkpt>
      <trkpt lat="50.42673" lon="3.92064">
        <ele>54</ele>
        <time>2023-10-22T10:57:05Z</time>
      </trkpt>
      <trkpt lat="50.42665" lon="3.92026">
        <ele>57</ele>
        <time>2023-10-22T10:57:11Z</time>
      </trkpt>
      <trkpt lat="50.42661" lon="3.91996">
        <ele>60</ele>
        <time>2023-10-22T10:57:15Z</time>
      </trkpt>
      <trkpt lat="50.42668" lon="3.91973">
        <ele>61</ele>
        <time>2023-10-22T10:57:19Z</time>
      </trkpt>
      <trkpt lat="50.42671" lon="3.91953">
        <ele>62</ele>
        <time>2023-10-22T10:57:22Z</time>
      </trkpt>
      <trkpt lat="50.42665" lon="3.91922">
        <ele>65</ele>
        <time>2023-10-22T10:57:27Z</time>
      </trkpt>
      <trkpt lat="50.42644" lon="3.91891">
        <ele>67</ele>
        <time>2023-10-22T10:57:34Z</time>
      </trkpt>
      <trkpt lat="50.42639" lon="3.91877">
        <ele>67</ele>
        <time>2023-10-22T10:57:36Z</time>
      </trkpt>
      <trkpt lat="50.42648" lon="3.91853">
        <ele>67</ele>
        <time>2023-10-22T10:57:40Z</time>
      </trkpt>
      <trkpt lat="50.42661" lon="3.91829">
        <ele>67</ele>
        <time>2023-10-22T10:57:45Z</time>
      </trkpt>
      <trkpt lat="50.42665" lon="3.91815">
        <ele>66</ele>
        <time>2023-10-22T10:57:47Z</time>
      </trkpt>
      <trkpt lat="50.42664" lon="3.91785">
        <ele>64</ele>
        <time>2023-10-22T10:57:52Z</time>
      </trkpt>
      <trkpt lat="50.42652" lon="3.91768">
        <ele>63</ele>
        <time>2023-10-22T10:57:55Z</time>
      </trkpt>
      <trkpt lat="50.42646" lon="3.91765">
        <ele>64</ele>
        <time>2023-10-22T10:57:57Z</time>
      </trkpt>
      <trkpt lat="50.42643" lon="3.91754">
        <ele>63</ele>
        <time>2023-10-22T10:57:59Z</time>
      </trkpt>
      <trkpt lat="50.42636" lon="3.91747">
        <ele>63</ele>
        <time>2023-10-22T10:58:01Z</time>
      </trkpt>
      <trkpt lat="50.42631" lon="3.91731">
        <ele>62</ele>
        <time>2023-10-22T10:58:03Z</time>
      </trkpt>
      <trkpt lat="50.42611" lon="3.91695">
        <ele>60</ele>
        <time>2023-10-22T10:58:10Z</time>
      </trkpt>
      <trkpt lat="50.426" lon="3.91693">
        <ele>61</ele>
        <time>2023-10-22T10:58:13Z</time>
      </trkpt>
      <trkpt lat="50.42588" lon="3.91685">
        <ele>61</ele>
        <time>2023-10-22T10:58:16Z</time>
      </trkpt>
      <trkpt lat="50.42577" lon="3.91685">
        <ele>62</ele>
        <time>2023-10-22T10:58:19Z</time>
      </trkpt>
      <trkpt lat="50.42503" lon="3.91824">
        <ele>65</ele>
        <time>2023-10-22T10:58:46Z</time>
      </trkpt>
      <trkpt lat="50.42501" lon="3.9185">
        <ele>65</ele>
        <time>2023-10-22T10:58:49Z</time>
      </trkpt>
      <trkpt lat="50.42501" lon="3.91848">
        <ele>65</ele>
        <time>2023-10-22T10:58:50Z</time>
      </trkpt>
      <trkpt lat="50.42511" lon="3.91977">
        <ele>65</ele>
        <time>2023-10-22T10:59:09Z</time>
      </trkpt>
      <trkpt lat="50.42527" lon="3.92069">
        <ele>61</ele>
        <time>2023-10-22T10:59:23Z</time>
      </trkpt>
      <trkpt lat="50.42533" lon="3.92077">
        <ele>61</ele>
        <time>2023-10-22T10:59:25Z</time>
      </trkpt>
      <trkpt lat="50.42533" lon="3.92116">
        <ele>59</ele>
        <time>2023-10-22T10:59:31Z</time>
      </trkpt>
      <trkpt lat="50.42544" lon="3.92142">
        <ele>58</ele>
        <time>2023-10-22T10:59:36Z</time>
      </trkpt>
      <trkpt lat="50.42578" lon="3.92172">
        <ele>57</ele>
        <time>2023-10-22T10:59:45Z</time>
      </trkpt>
      <trkpt lat="50.42575" lon="3.92181">
        <ele>56</ele>
        <time>2023-10-22T10:59:46Z</time>
      </trkpt>
      <trkpt lat="50.42578" lon="3.92286">
        <ele>53</ele>
        <time>2023-10-22T11:00:02Z</time>
      </trkpt>
      <trkpt lat="50.42576" lon="3.92306">
        <ele>53</ele>
        <time>2023-10-22T11:00:05Z</time>
      </trkpt>
      <trkpt lat="50.42554" lon="3.92364">
        <ele>53</ele>
        <time>2023-10-22T11:00:15Z</time>
      </trkpt>
      <trkpt lat="50.42575" lon="3.92384">
        <ele>53</ele>
        <time>2023-10-22T11:00:21Z</time>
      </trkpt>
      <trkpt lat="50.42554" lon="3.92513">
        <ele>53</ele>
        <time>2023-10-22T11:00:40Z</time>
      </trkpt>
      <trkpt lat="50.42549" lon="3.92596">
        <ele>52</ele>
        <time>2023-10-22T11:00:53Z</time>
      </trkpt>
      <trkpt lat="50.42549" lon="3.92676">
        <ele>51</ele>
        <time>2023-10-22T11:01:05Z</time>
      </trkpt>
      <trkpt lat="50.42553" lon="3.92744">
        <ele>51</ele>
        <time>2023-10-22T11:01:15Z</time>
      </trkpt>
      <trkpt lat="50.42566" lon="3.92823">
        <ele>51</ele>
        <time>2023-10-22T11:01:27Z</time>
      </trkpt>
      <trkpt lat="50.42599" lon="3.92954">
        <ele>51</ele>
        <time>2023-10-22T11:01:48Z</time>
      </trkpt>
      <trkpt lat="50.42614" lon="3.92995">
        <ele>50</ele>
        <time>2023-10-22T11:01:55Z</time>
      </trkpt>
      <trkpt lat="50.42658" lon="3.93089">
        <ele>47</ele>
        <time>2023-10-22T11:02:12Z</time>
      </trkpt>
      <trkpt lat="50.42825" lon="3.93357">
        <ele>45</ele>
        <time>2023-10-22T11:03:08Z</time>
      </trkpt>
      <trkpt lat="50.4285" lon="3.93391">
        <ele>44</ele>
        <time>2023-10-22T11:03:16Z</time>
      </trkpt>
      <trkpt lat="50.42852" lon="3.93401">
        <ele>44</ele>
        <time>2023-10-22T11:03:17Z</time>
      </trkpt>
      <trkpt lat="50.42874" lon="3.93441">
        <ele>44</ele>
        <time>2023-10-22T11:03:25Z</time>
      </trkpt>
      <trkpt lat="50.42899" lon="3.93474">
        <ele>44</ele>
        <time>2023-10-22T11:03:33Z</time>
      </trkpt>
      <trkpt lat="50.42872" lon="3.9353">
        <ele>43</ele>
        <time>2023-10-22T11:03:43Z</time>
      </trkpt>
      <trkpt lat="50.4283" lon="3.93591">
        <ele>44</ele>
        <time>2023-10-22T11:03:57Z</time>
      </trkpt>
      <trkpt lat="50.42841" lon="3.93576">
        <ele>44</ele>
        <time>2023-10-22T11:04:00Z</time>
      </trkpt>
      <trkpt lat="50.42846" lon="3.93583">
        <ele>44</ele>
        <time>2023-10-22T11:04:02Z</time>
      </trkpt>
      <trkpt lat="50.42877" lon="3.93544">
        <ele>43</ele>
        <time>2023-10-22T11:04:11Z</time>
      </trkpt>
      <trkpt lat="50.42882" lon="3.93542">
        <ele>43</ele>
        <time>2023-10-22T11:04:12Z</time>
      </trkpt>
      <trkpt lat="50.42908" lon="3.93557">
        <ele>42</ele>
        <time>2023-10-22T11:04:19Z</time>
      </trkpt>
      <trkpt lat="50.42913" lon="3.93563">
        <ele>42</ele>
        <time>2023-10-22T11:04:20Z</time>
      </trkpt>
      <trkpt lat="50.42917" lon="3.93574">
        <ele>42</ele>
        <time>2023-10-22T11:04:22Z</time>
      </trkpt>
      <trkpt lat="50.42927" lon="3.93622">
        <ele>43</ele>
        <time>2023-10-22T11:04:29Z</time>
      </trkpt>
      <trkpt lat="50.42937" lon="3.93688">
        <ele>44</ele>
        <time>2023-10-22T11:04:40Z</time>
      </trkpt>
      <trkpt lat="50.42947" lon="3.93779">
        <ele>43</ele>
        <time>2023-10-22T11:04:53Z</time>
      </trkpt>
      <trkpt lat="50.42949" lon="3.93838">
        <ele>43</ele>
        <time>2023-10-22T11:05:02Z</time>
      </trkpt>
      <trkpt lat="50.42947" lon="3.93905">
        <ele>43</ele>
        <time>2023-10-22T11:05:12Z</time>
      </trkpt>
      <trkpt lat="50.42936" lon="3.94016">
        <ele>44</ele>
        <time>2023-10-22T11:05:29Z</time>
      </trkpt>
      <trkpt lat="50.4294" lon="3.9403">
        <ele>44</ele>
        <time>2023-10-22T11:05:31Z</time>
      </trkpt>
      <trkpt lat="50.43027" lon="3.93787">
        <ele>43</ele>
        <time>2023-10-22T11:06:13Z</time>
      </trkpt>
      <trkpt lat="50.43047" lon="3.93743">
        <ele>43</ele>
        <time>2023-10-22T11:06:21Z</time>
      </trkpt>
      <trkpt lat="50.43095" lon="3.93661">
        <ele>43</ele>
        <time>2023-10-22T11:06:37Z</time>
      </trkpt>
      <trkpt lat="50.43134" lon="3.93609">
        <ele>42</ele>
        <time>2023-10-22T11:06:49Z</time>
      </trkpt>
      <trkpt lat="50.43176" lon="3.93565">
        <ele>40</ele>
        <time>2023-10-22T11:07:01Z</time>
      </trkpt>
      <trkpt lat="50.43211" lon="3.93535">
        <ele>39</ele>
        <time>2023-10-22T11:07:10Z</time>
      </trkpt>
      <trkpt lat="50.43215" lon="3.9355">
        <ele>39</ele>
        <time>2023-10-22T11:07:13Z</time>
      </trkpt>
      <trkpt lat="50.43239" lon="3.93532">
        <ele>39</ele>
        <time>2023-10-22T11:07:19Z</time>
      </trkpt>
      <trkpt lat="50.43314" lon="3.93495">
        <ele>39</ele>
        <time>2023-10-22T11:07:37Z</time>
      </trkpt>
      <trkpt lat="50.43383" lon="3.93479">
        <ele>39</ele>
        <time>2023-10-22T11:07:53Z</time>
      </trkpt>
      <trkpt lat="50.43505" lon="3.93465">
        <ele>36</ele>
        <time>2023-10-22T11:08:22Z</time>
      </trkpt>
      <trkpt lat="50.43518" lon="3.93466">
        <ele>36</ele>
        <time>2023-10-22T11:08:25Z</time>
      </trkpt>
      <trkpt lat="50.43528" lon="3.9347">
        <ele>36</ele>
        <time>2023-10-22T11:08:27Z</time>
      </trkpt>
      <trkpt lat="50.43519" lon="3.93485">
        <ele>37</ele>
        <time>2023-10-22T11:08:31Z</time>
      </trkpt>
      <trkpt lat="50.43515" lon="3.935">
        <ele>37</ele>
        <time>2023-10-22T11:08:33Z</time>
      </trkpt>
      <trkpt lat="50.43499" lon="3.93512">
        <ele>38</ele>
        <time>2023-10-22T11:08:37Z</time>
      </trkpt>
      <trkpt lat="50.43473" lon="3.93523">
        <ele>39</ele>
        <time>2023-10-22T11:08:43Z</time>
      </trkpt>
      <trkpt lat="50.43454" lon="3.93541">
        <ele>40</ele>
        <time>2023-10-22T11:08:49Z</time>
      </trkpt>
      <trkpt lat="50.43439" lon="3.93563">
        <ele>41</ele>
        <time>2023-10-22T11:08:53Z</time>
      </trkpt>
      <trkpt lat="50.4343" lon="3.93569">
        <ele>41</ele>
        <time>2023-10-22T11:08:56Z</time>
      </trkpt>
      <trkpt lat="50.4338" lon="3.93587">
        <ele>43</ele>
        <time>2023-10-22T11:09:08Z</time>
      </trkpt>
      <trkpt lat="50.43367" lon="3.93606">
        <ele>44</ele>
        <time>2023-10-22T11:09:12Z</time>
      </trkpt>
      <trkpt lat="50.43339" lon="3.93635">
        <ele>45</ele>
        <time>2023-10-22T11:09:20Z</time>
      </trkpt>
      <trkpt lat="50.43323" lon="3.93633">
        <ele>45</ele>
        <time>2023-10-22T11:09:23Z</time>
      </trkpt>
      <trkpt lat="50.43286" lon="3.93659">
        <ele>44</ele>
        <time>2023-10-22T11:09:33Z</time>
      </trkpt>
      <trkpt lat="50.4327" lon="3.93673">
        <ele>45</ele>
        <time>2023-10-22T11:09:37Z</time>
      </trkpt>
      <trkpt lat="50.43251" lon="3.93684">
        <ele>45</ele>
        <time>2023-10-22T11:09:42Z</time>
      </trkpt>
      <trkpt lat="50.43215" lon="3.93717">
        <ele>46</ele>
        <time>2023-10-22T11:09:52Z</time>
      </trkpt>
      <trkpt lat="50.43204" lon="3.93731">
        <ele>47</ele>
        <time>2023-10-22T11:09:55Z</time>
      </trkpt>
      <trkpt lat="50.43183" lon="3.9377">
        <ele>47</ele>
        <time>2023-10-22T11:10:02Z</time>
      </trkpt>
      <trkpt lat="50.43208" lon="3.93772">
        <ele>50</ele>
        <time>2023-10-22T11:10:08Z</time>
      </trkpt>
      <trkpt lat="50.43215" lon="3.93795">
        <ele>52</ele>
        <time>2023-10-22T11:10:12Z</time>
      </trkpt>
      <trkpt lat="50.43214" lon="3.93813">
        <ele>53</ele>
        <time>2023-10-22T11:10:15Z</time>
      </trkpt>
      <trkpt lat="50.43248" lon="3.93814">
        <ele>57</ele>
        <time>2023-10-22T11:10:23Z</time>
      </trkpt>
      <trkpt lat="50.43268" lon="3.93826">
        <ele>60</ele>
        <time>2023-10-22T11:10:28Z</time>
      </trkpt>
      <trkpt lat="50.43301" lon="3.93807">
        <ele>62</ele>
        <time>2023-10-22T11:10:36Z</time>
      </trkpt>
      <trkpt lat="50.43315" lon="3.93789">
        <ele>61</ele>
        <time>2023-10-22T11:10:40Z</time>
      </trkpt>
      <trkpt lat="50.43332" lon="3.93781">
        <ele>62</ele>
        <time>2023-10-22T11:10:44Z</time>
      </trkpt>
      <trkpt lat="50.43353" lon="3.93751">
        <ele>59</ele>
        <time>2023-10-22T11:10:51Z</time>
      </trkpt>
      <trkpt lat="50.43361" lon="3.93761">
        <ele>60</ele>
        <time>2023-10-22T11:10:53Z</time>
      </trkpt>
      <trkpt lat="50.43385" lon="3.93767">
        <ele>62</ele>
        <time>2023-10-22T11:10:59Z</time>
      </trkpt>
      <trkpt lat="50.43406" lon="3.93767">
        <ele>62</ele>
        <time>2023-10-22T11:11:04Z</time>
      </trkpt>
      <trkpt lat="50.43423" lon="3.93756">
        <ele>61</ele>
        <time>2023-10-22T11:11:08Z</time>
      </trkpt>
      <trkpt lat="50.43448" lon="3.93757">
        <ele>61</ele>
        <time>2023-10-22T11:11:14Z</time>
      </trkpt>
      <trkpt lat="50.43459" lon="3.93742">
        <ele>58</ele>
        <time>2023-10-22T11:11:17Z</time>
      </trkpt>
      <trkpt lat="50.43474" lon="3.93734">
        <ele>57</ele>
        <time>2023-10-22T11:11:21Z</time>
      </trkpt>
      <trkpt lat="50.43486" lon="3.93767">
        <ele>62</ele>
        <time>2023-10-22T11:11:27Z</time>
      </trkpt>
      <trkpt lat="50.43501" lon="3.93778">
        <ele>64</ele>
        <time>2023-10-22T11:11:31Z</time>
      </trkpt>
      <trkpt lat="50.43523" lon="3.93769">
        <ele>61</ele>
        <time>2023-10-22T11:11:36Z</time>
      </trkpt>
      <trkpt lat="50.43546" lon="3.9378">
        <ele>61</ele>
        <time>2023-10-22T11:11:42Z</time>
      </trkpt>
      <trkpt lat="50.43557" lon="3.93798">
        <ele>62</ele>
        <time>2023-10-22T11:11:45Z</time>
      </trkpt>
      <trkpt lat="50.43588" lon="3.94012">
        <ele>72</ele>
        <time>2023-10-22T11:12:18Z</time>
      </trkpt>
      <trkpt lat="50.43557" lon="3.94139">
        <ele>71</ele>
        <time>2023-10-22T11:12:38Z</time>
      </trkpt>
      <trkpt lat="50.4354" lon="3.94198">
        <ele>71</ele>
        <time>2023-10-22T11:12:48Z</time>
      </trkpt>
      <trkpt lat="50.4352" lon="3.9422">
        <ele>75</ele>
        <time>2023-10-22T11:12:54Z</time>
      </trkpt>
      <trkpt lat="50.43491" lon="3.94226">
        <ele>81</ele>
        <time>2023-10-22T11:13:00Z</time>
      </trkpt>
      <trkpt lat="50.43478" lon="3.9425">
        <ele>82</ele>
        <time>2023-10-22T11:13:05Z</time>
      </trkpt>
      <trkpt lat="50.43471" lon="3.94272">
        <ele>82</ele>
        <time>2023-10-22T11:13:09Z</time>
      </trkpt>
      <trkpt lat="50.4347" lon="3.94306">
        <ele>79</ele>
        <time>2023-10-22T11:13:14Z</time>
      </trkpt>
      <trkpt lat="50.43479" lon="3.94322">
        <ele>76</ele>
        <time>2023-10-22T11:13:17Z</time>
      </trkpt>
      <trkpt lat="50.43482" lon="3.94342">
        <ele>74</ele>
        <time>2023-10-22T11:13:20Z</time>
      </trkpt>
      <trkpt lat="50.43453" lon="3.94342">
        <ele>77</ele>
        <time>2023-10-22T11:13:27Z</time>
      </trkpt>
      <trkpt lat="50.43452" lon="3.94367">
        <ele>74</ele>
        <time>2023-10-22T11:13:30Z</time>
      </trkpt>
      <trkpt lat="50.43441" lon="3.94383">
        <ele>73</ele>
        <time>2023-10-22T11:13:34Z</time>
      </trkpt>
      <trkpt lat="50.43424" lon="3.94399">
        <ele>73</ele>
        <time>2023-10-22T11:13:39Z</time>
      </trkpt>
      <trkpt lat="50.43398" lon="3.94417">
        <ele>71</ele>
        <time>2023-10-22T11:13:45Z</time>
      </trkpt>
      <trkpt lat="50.43389" lon="3.94416">
        <ele>72</ele>
        <time>2023-10-22T11:13:47Z</time>
      </trkpt>
      <trkpt lat="50.43384" lon="3.9442">
        <ele>71</ele>
        <time>2023-10-22T11:13:49Z</time>
      </trkpt>
      <trkpt lat="50.43359" lon="3.94403">
        <ele>74</ele>
        <time>2023-10-22T11:13:55Z</time>
      </trkpt>
      <trkpt lat="50.43328" lon="3.94389">
        <ele>76</ele>
        <time>2023-10-22T11:14:03Z</time>
      </trkpt>
      <trkpt lat="50.43307" lon="3.94368">
        <ele>76</ele>
        <time>2023-10-22T11:14:08Z</time>
      </trkpt>
      <trkpt lat="50.43283" lon="3.94355">
        <ele>73</ele>
        <time>2023-10-22T11:14:14Z</time>
      </trkpt>
      <trkpt lat="50.43259" lon="3.94326">
        <ele>72</ele>
        <time>2023-10-22T11:14:21Z</time>
      </trkpt>
      <trkpt lat="50.43217" lon="3.94259">
        <ele>71</ele>
        <time>2023-10-22T11:14:35Z</time>
      </trkpt>
      <trkpt lat="50.43203" lon="3.94247">
        <ele>69</ele>
        <time>2023-10-22T11:14:39Z</time>
      </trkpt>
      <trkpt lat="50.43151" lon="3.94227">
        <ele>62</ele>
        <time>2023-10-22T11:14:52Z</time>
      </trkpt>
      <trkpt lat="50.4314" lon="3.94229">
        <ele>60</ele>
        <time>2023-10-22T11:14:54Z</time>
      </trkpt>
      <trkpt lat="50.4305" lon="3.94221">
        <ele>51</ele>
        <time>2023-10-22T11:15:15Z</time>
      </trkpt>
      <trkpt lat="50.43043" lon="3.94215">
        <ele>50</ele>
        <time>2023-10-22T11:15:17Z</time>
      </trkpt>
      <trkpt lat="50.42939" lon="3.94201">
        <ele>45</ele>
        <time>2023-10-22T11:15:41Z</time>
      </trkpt>
      <trkpt lat="50.42877" lon="3.94196">
        <ele>45</ele>
        <time>2023-10-22T11:15:56Z</time>
      </trkpt>
      <trkpt lat="50.42856" lon="3.9419">
        <ele>44</ele>
        <time>2023-10-22T11:16:01Z</time>
      </trkpt>
      <trkpt lat="50.4278" lon="3.94127">
        <ele>46</ele>
        <time>2023-10-22T11:16:21Z</time>
      </trkpt>
      <trkpt lat="50.42724" lon="3.9409">
        <ele>47</ele>
        <time>2023-10-22T11:16:35Z</time>
      </trkpt>
      <trkpt lat="50.42614" lon="3.94028">
        <ele>46</ele>
        <time>2023-10-22T11:17:03Z</time>
      </trkpt>
      <trkpt lat="50.42607" lon="3.94037">
        <ele>46</ele>
        <time>2023-10-22T11:17:05Z</time>
      </trkpt>
      <trkpt lat="50.42592" lon="3.94014">
        <ele>46</ele>
        <time>2023-10-22T11:17:10Z</time>
      </trkpt>
      <trkpt lat="50.42571" lon="3.93996">
        <ele>45</ele>
        <time>2023-10-22T11:17:15Z</time>
      </trkpt>
      <trkpt lat="50.42539" lon="3.93975">
        <ele>46</ele>
        <time>2023-10-22T11:17:23Z</time>
      </trkpt>
      <trkpt lat="50.42473" lon="3.93945">
        <ele>48</ele>
        <time>2023-10-22T11:17:39Z</time>
      </trkpt>
      <trkpt lat="50.42448" lon="3.93931">
        <ele>49</ele>
        <time>2023-10-22T11:17:45Z</time>
      </trkpt>
      <trkpt lat="50.42424" lon="3.93914">
        <ele>50</ele>
        <time>2023-10-22T11:17:52Z</time>
      </trkpt>
      <trkpt lat="50.42382" lon="3.93878">
        <ele>51</ele>
        <time>2023-10-22T11:18:03Z</time>
      </trkpt>
      <trkpt lat="50.42365" lon="3.93867">
        <ele>51</ele>
        <time>2023-10-22T11:18:07Z</time>
      </trkpt>
      <trkpt lat="50.42282" lon="3.93834">
        <ele>53</ele>
        <time>2023-10-22T11:18:27Z</time>
      </trkpt>
      <trkpt lat="50.42266" lon="3.93825">
        <ele>54</ele>
        <time>2023-10-22T11:18:31Z</time>
      </trkpt>
      <trkpt lat="50.42166" lon="3.93755">
        <ele>57</ele>
        <time>2023-10-22T11:18:57Z</time>
      </trkpt>
      <trkpt lat="50.42129" lon="3.93706">
        <ele>59</ele>
        <time>2023-10-22T11:19:08Z</time>
      </trkpt>
      <trkpt lat="50.42025" lon="3.93545">
        <ele>61</ele>
        <time>2023-10-22T11:19:42Z</time>
      </trkpt>
      <trkpt lat="50.4211" lon="3.93422">
        <ele>61</ele>
        <time>2023-10-22T11:20:09Z</time>
      </trkpt>
      <trkpt lat="50.42178" lon="3.93312">
        <ele>61</ele>
        <time>2023-10-22T11:20:32Z</time>
      </trkpt>
      <trkpt lat="50.4223" lon="3.93217">
        <ele>59</ele>
        <time>2023-10-22T11:20:50Z</time>
      </trkpt>
      <trkpt lat="50.42239" lon="3.93195">
        <ele>58</ele>
        <time>2023-10-22T11:20:54Z</time>
      </trkpt>
      <trkpt lat="50.42251" lon="3.93152">
        <ele>57</ele>
        <time>2023-10-22T11:21:01Z</time>
      </trkpt>
      <trkpt lat="50.42266" lon="3.93119">
        <ele>57</ele>
        <time>2023-10-22T11:21:07Z</time>
      </trkpt>
      <trkpt lat="50.4229" lon="3.93049">
        <ele>57</ele>
        <time>2023-10-22T11:21:19Z</time>
      </trkpt>
      <trkpt lat="50.42341" lon="3.92924">
        <ele>57</ele>
        <time>2023-10-22T11:21:41Z</time>
      </trkpt>
      <trkpt lat="50.424" lon="3.92769">
        <ele>56</ele>
        <time>2023-10-22T11:22:08Z</time>
      </trkpt>
      <trkpt lat="50.42439" lon="3.92682">
        <ele>54</ele>
        <time>2023-10-22T11:22:24Z</time>
      </trkpt>
      <trkpt lat="50.42466" lon="3.926">
        <ele>53</ele>
        <time>2023-10-22T11:22:38Z</time>
      </trkpt>
      <trkpt lat="50.42513" lon="3.92475">
        <ele>55</ele>
        <time>2023-10-22T11:22:59Z</time>
      </trkpt>
      <trkpt lat="50.42557" lon="3.92367">
        <ele>53</ele>
        <time>2023-10-22T11:23:18Z</time>
      </trkpt>
      <trkpt lat="50.42513" lon="3.9232">
        <ele>55</ele>
        <time>2023-10-22T11:23:31Z</time>
      </trkpt>
      <trkpt lat="50.42483" lon="3.92304">
        <ele>56</ele>
        <time>2023-10-22T11:23:38Z</time>
      </trkpt>
      <trkpt lat="50.42408" lon="3.92278">
        <ele>58</ele>
        <time>2023-10-22T11:23:56Z</time>
      </trkpt>
      <trkpt lat="50.42366" lon="3.92255">
        <ele>60</ele>
        <time>2023-10-22T11:24:07Z</time>
      </trkpt>
      <trkpt lat="50.42267" lon="3.92222">
        <ele>65</ele>
        <time>2023-10-22T11:24:30Z</time>
      </trkpt>
      <trkpt lat="50.42182" lon="3.92186">
        <ele>69</ele>
        <time>2023-10-22T11:24:51Z</time>
      </trkpt>
      <trkpt lat="50.42097" lon="3.92166">
        <ele>71</ele>
        <time>2023-10-22T11:25:11Z</time>
      </trkpt>
      <trkpt lat="50.41995" lon="3.92157">
        <ele>71</ele>
        <time>2023-10-22T11:25:35Z</time>
      </trkpt>
      <trkpt lat="50.41952" lon="3.92147">
        <ele>70</ele>
        <time>2023-10-22T11:25:45Z</time>
      </trkpt>
      <trkpt lat="50.41878" lon="3.92123">
        <ele>69</ele>
        <time>2023-10-22T11:26:02Z</time>
      </trkpt>
      <trkpt lat="50.41818" lon="3.92099">
        <ele>69</ele>
        <time>2023-10-22T11:26:17Z</time>
      </trkpt>
      <trkpt lat="50.41796" lon="3.92083">
        <ele>69</ele>
        <time>2023-10-22T11:26:23Z</time>
      </trkpt>
      <trkpt lat="50.41788" lon="3.92074">
        <ele>69</ele>
        <time>2023-10-22T11:26:25Z</time>
      </trkpt>
      <trkpt lat="50.41742" lon="3.91982">
        <ele>68</ele>
        <time>2023-10-22T11:26:42Z</time>
      </trkpt>
      <trkpt lat="50.4173" lon="3.91966">
        <ele>68</ele>
        <time>2023-10-22T11:26:46Z</time>
      </trkpt>
      <trkpt lat="50.41692" lon="3.91938">
        <ele>66</ele>
        <time>2023-10-22T11:26:56Z</time>
      </trkpt>
      <trkpt lat="50.41657" lon="3.91918">
        <ele>65</ele>
        <time>2023-10-22T11:27:04Z</time>
      </trkpt>
      <trkpt lat="50.41644" lon="3.91913">
        <ele>64</ele>
        <time>2023-10-22T11:27:08Z</time>
      </trkpt>
      <trkpt lat="50.4166" lon="3.91843">
        <ele>64</ele>
        <time>2023-10-22T11:27:19Z</time>
      </trkpt>
      <trkpt lat="50.41684" lon="3.91765">
        <ele>66</ele>
        <time>2023-10-22T11:27:32Z</time>
      </trkpt>
      <trkpt lat="50.41707" lon="3.91708">
        <ele>67</ele>
        <time>2023-10-22T11:27:42Z</time>
      </trkpt>
      <trkpt lat="50.41839" lon="3.9142">
        <ele>74</ele>
        <time>2023-10-22T11:28:34Z</time>
      </trkpt>
      <trkpt lat="50.41863" lon="3.91385">
        <ele>74</ele>
        <time>2023-10-22T11:28:42Z</time>
      </trkpt>
      <trkpt lat="50.41896" lon="3.9131">
        <ele>74</ele>
        <time>2023-10-22T11:28:56Z</time>
      </trkpt>
      <trkpt lat="50.4196" lon="3.91151">
        <ele>73</ele>
        <time>2023-10-22T11:29:24Z</time>
      </trkpt>
      <trkpt lat="50.42043" lon="3.90987">
        <ele>69</ele>
        <time>2023-10-22T11:29:55Z</time>
      </trkpt>
      <trkpt lat="50.42096" lon="3.90863">
        <ele>65</ele>
        <time>2023-10-22T11:30:17Z</time>
      </trkpt>
      <trkpt lat="50.42118" lon="3.90795">
        <ele>63</ele>
        <time>2023-10-22T11:30:28Z</time>
      </trkpt>
      <trkpt lat="50.42153" lon="3.90653">
        <ele>58</ele>
        <time>2023-10-22T11:30:51Z</time>
      </trkpt>
      <trkpt lat="50.42178" lon="3.9057">
        <ele>57</ele>
        <time>2023-10-22T11:31:05Z</time>
      </trkpt>
      <trkpt lat="50.42206" lon="3.90465">
        <ele>59</ele>
        <time>2023-10-22T11:31:22Z</time>
      </trkpt>
      <trkpt lat="50.42211" lon="3.90457">
        <ele>59</ele>
        <time>2023-10-22T11:31:23Z</time>
      </trkpt>
      <trkpt lat="50.42334" lon="3.90519">
        <ele>55</ele>
        <time>2023-10-22T11:31:53Z</time>
      </trkpt>
      <trkpt lat="50.42384" lon="3.90561">
        <ele>53</ele>
        <time>2023-10-22T11:32:07Z</time>
      </trkpt>
      <trkpt lat="50.42475" lon="3.90649">
        <ele>53</ele>
        <time>2023-10-22T11:32:32Z</time>
      </trkpt>
      <trkpt lat="50.42569" lon="3.90446">
        <ele>63</ele>
        <time>2023-10-22T11:33:09Z</time>
      </trkpt>
      <trkpt lat="50.42564" lon="3.90136">
        <ele>72</ele>
        <time>2023-10-22T11:33:55Z</time>
      </trkpt>
      <trkpt lat="50.42567" lon="3.90078">
        <ele>73</ele>
        <time>2023-10-22T11:34:04Z</time>
      </trkpt>
      <trkpt lat="50.42566" lon="3.89943">
        <ele>72</ele>
        <time>2023-10-22T11:34:24Z</time>
      </trkpt>
      <trkpt lat="50.42561" lon="3.89709">
        <ele>75</ele>
        <time>2023-10-22T11:34:59Z</time>
      </trkpt>
      <trkpt lat="50.42557" lon="3.89695">
        <ele>75</ele>
        <time>2023-10-22T11:35:01Z</time>
      </trkpt>
      <trkpt lat="50.42542" lon="3.89685">
        <ele>75</ele>
        <time>2023-10-22T11:35:05Z</time>
      </trkpt>
      <trkpt lat="50.42533" lon="3.89702">
        <ele>75</ele>
        <time>2023-10-22T11:35:08Z</time>
      </trkpt>
      <trkpt lat="50.42542" lon="3.89685">
        <ele>75</ele>
        <time>2023-10-22T11:35:11Z</time>
      </trkpt>
      <trkpt lat="50.42526" lon="3.89674">
        <ele>75</ele>
        <time>2023-10-22T11:35:15Z</time>
      </trkpt>
      <trkpt lat="50.42482" lon="3.89619">
        <ele>76</ele>
        <time>2023-10-22T11:35:29Z</time>
      </trkpt>
      <trkpt lat="50.42476" lon="3.89616">
        <ele>76</ele>
        <time>2023-10-22T11:35:30Z</time>
      </trkpt>
      <trkpt lat="50.42472" lon="3.89603">
        <ele>76</ele>
        <time>2023-10-22T11:35:32Z</time>
      </trkpt>
      <trkpt lat="50.42494" lon="3.89476">
        <ele>75</ele>
        <time>2023-10-22T11:35:52Z</time>
      </trkpt>
      <trkpt lat="50.42498" lon="3.89379">
        <ele>73</ele>
        <time>2023-10-22T11:36:06Z</time>
      </trkpt>
      <trkpt lat="50.42496" lon="3.89367">
        <ele>72</ele>
        <time>2023-10-22T11:36:08Z</time>
      </trkpt>
      <trkpt lat="50.42486" lon="3.8935">
        <ele>72</ele>
        <time>2023-10-22T11:36:11Z</time>
      </trkpt>
      <trkpt lat="50.4248" lon="3.89347">
        <ele>72</ele>
        <time>2023-10-22T11:36:13Z</time>
      </trkpt>
      <trkpt lat="50.42442" lon="3.89341">
        <ele>73</ele>
        <time>2023-10-22T11:36:22Z</time>
      </trkpt>
      <trkpt lat="50.42426" lon="3.8933">
        <ele>74</ele>
        <time>2023-10-22T11:36:26Z</time>
      </trkpt>
      <trkpt lat="50.4242" lon="3.89302">
        <ele>74</ele>
        <time>2023-10-22T11:36:30Z</time>
      </trkpt>
      <trkpt lat="50.42621" lon="3.89239">
        <ele>69</ele>
        <time>2023-10-22T11:37:18Z</time>
      </trkpt>
      <trkpt lat="50.42667" lon="3.89234">
        <ele>68</ele>
        <time>2023-10-22T11:37:29Z</time>
      </trkpt>
      <trkpt lat="50.42691" lon="3.89224">
        <ele>67</ele>
        <time>2023-10-22T11:37:35Z</time>
      </trkpt>
      <trkpt lat="50.42833" lon="3.89132">
        <ele>64</ele>
        <time>2023-10-22T11:38:11Z</time>
      </trkpt>
      <trkpt lat="50.42988" lon="3.89078">
        <ele>63</ele>
        <time>2023-10-22T11:38:48Z</time>
      </trkpt>
      <trkpt lat="50.42993" lon="3.89079">
        <ele>63</ele>
        <time>2023-10-22T11:38:49Z</time>
      </trkpt>
      <trkpt lat="50.4299" lon="3.89138">
        <ele>64</ele>
        <time>2023-10-22T11:38:58Z</time>
      </trkpt>
      <trkpt lat="50.42992" lon="3.89145">
        <ele>64</ele>
        <time>2023-10-22T11:38:59Z</time>
      </trkpt>
      <trkpt lat="50.42981" lon="3.89163">
        <ele>64</ele>
        <time>2023-10-22T11:39:03Z</time>
      </trkpt>
      <trkpt lat="50.42942" lon="3.89214">
        <ele>64</ele>
        <time>2023-10-22T11:39:14Z</time>
      </trkpt>
      <trkpt lat="50.42924" lon="3.89234">
        <ele>63</ele>
        <time>2023-10-22T11:39:20Z</time>
      </trkpt>
      <trkpt lat="50.4282" lon="3.89328">
        <ele>65</ele>
        <time>2023-10-22T11:39:48Z</time>
      </trkpt>
      <trkpt lat="50.42251" lon="3.8979">
        <ele>73</ele>
        <time>2023-10-22T11:42:17Z</time>
      </trkpt>
      <trkpt lat="50.42258" lon="3.89801">
        <ele>74</ele>
        <time>2023-10-22T11:42:20Z</time>
      </trkpt>
      <trkpt lat="50.42274" lon="3.89814">
        <ele>76</ele>
        <time>2023-10-22T11:42:24Z</time>
      </trkpt>
      <trkpt lat="50.42284" lon="3.89836">
        <ele>78</ele>
        <time>2023-10-22T11:42:28Z</time>
      </trkpt>
      <trkpt lat="50.42288" lon="3.8987">
        <ele>82</ele>
        <time>2023-10-22T11:42:33Z</time>
      </trkpt>
      <trkpt lat="50.42305" lon="3.89895">
        <ele>86</ele>
        <time>2023-10-22T11:42:38Z</time>
      </trkpt>
      <trkpt lat="50.42308" lon="3.89905">
        <ele>87</ele>
        <time>2023-10-22T11:42:40Z</time>
      </trkpt>
      <trkpt lat="50.42281" lon="3.8992">
        <ele>87</ele>
        <time>2023-10-22T11:42:47Z</time>
      </trkpt>
      <trkpt lat="50.42266" lon="3.89921">
        <ele>86</ele>
        <time>2023-10-22T11:42:50Z</time>
      </trkpt>
      <trkpt lat="50.42238" lon="3.89918">
        <ele>83</ele>
        <time>2023-10-22T11:42:57Z</time>
      </trkpt>
      <trkpt lat="50.42223" lon="3.8991">
        <ele>81</ele>
        <time>2023-10-22T11:43:00Z</time>
      </trkpt>
      <trkpt lat="50.42216" lon="3.89914">
        <ele>81</ele>
        <time>2023-10-22T11:43:02Z</time>
      </trkpt>
      <trkpt lat="50.42193" lon="3.89909">
        <ele>78</ele>
        <time>2023-10-22T11:43:08Z</time>
      </trkpt>
      <trkpt lat="50.42187" lon="3.89904">
        <ele>77</ele>
        <time>2023-10-22T11:43:09Z</time>
      </trkpt>
      <trkpt lat="50.42151" lon="3.89909">
        <ele>75</ele>
        <time>2023-10-22T11:43:18Z</time>
      </trkpt>
      <trkpt lat="50.42126" lon="3.89924">
        <ele>76</ele>
        <time>2023-10-22T11:43:24Z</time>
      </trkpt>
      <trkpt lat="50.4211" lon="3.89937">
        <ele>76</ele>
        <time>2023-10-22T11:43:28Z</time>
      </trkpt>
      <trkpt lat="50.4209" lon="3.89947">
        <ele>75</ele>
        <time>2023-10-22T11:43:33Z</time>
      </trkpt>
      <trkpt lat="50.42075" lon="3.8996">
        <ele>74</ele>
        <time>2023-10-22T11:43:37Z</time>
      </trkpt>
      <trkpt lat="50.4209" lon="3.89946">
        <ele>75</ele>
        <time>2023-10-22T11:43:41Z</time>
      </trkpt>
      <trkpt lat="50.4211" lon="3.89937">
        <ele>76</ele>
        <time>2023-10-22T11:43:46Z</time>
      </trkpt>
      <trkpt lat="50.42126" lon="3.89924">
        <ele>76</ele>
        <time>2023-10-22T11:43:50Z</time>
      </trkpt>
      <trkpt lat="50.42151" lon="3.89909">
        <ele>75</ele>
        <time>2023-10-22T11:43:56Z</time>
      </trkpt>
      <trkpt lat="50.42139" lon="3.8989">
        <ele>73</ele>
        <time>2023-10-22T11:44:00Z</time>
      </trkpt>
      <trkpt lat="50.42134" lon="3.89886">
        <ele>73</ele>
        <time>2023-10-22T11:44:02Z</time>
      </trkpt>
      <trkpt lat="50.42026" lon="3.89974">
        <ele>72</ele>
        <time>2023-10-22T11:44:30Z</time>
      </trkpt>
      <trkpt lat="50.41806" lon="3.90145">
        <ele>70</ele>
        <time>2023-10-22T11:45:27Z</time>
      </trkpt>
      <trkpt lat="50.41731" lon="3.90194">
        <ele>72</ele>
        <time>2023-10-22T11:45:46Z</time>
      </trkpt>
      <trkpt lat="50.4168" lon="3.90227">
        <ele>73</ele>
        <time>2023-10-22T11:45:59Z</time>
      </trkpt>
      <trkpt lat="50.41596" lon="3.90265">
        <ele>73</ele>
        <time>2023-10-22T11:46:20Z</time>
      </trkpt>
      <trkpt lat="50.41473" lon="3.90311">
        <ele>75</ele>
        <time>2023-10-22T11:46:49Z</time>
      </trkpt>
      <trkpt lat="50.41457" lon="3.90319">
        <ele>75</ele>
        <time>2023-10-22T11:46:53Z</time>
      </trkpt>
      <trkpt lat="50.41449" lon="3.90327">
        <ele>75</ele>
        <time>2023-10-22T11:46:55Z</time>
      </trkpt>
      <trkpt lat="50.41446" lon="3.90334">
        <ele>75</ele>
        <time>2023-10-22T11:46:57Z</time>
      </trkpt>
      <trkpt lat="50.41495" lon="3.9032">
        <ele>74</ele>
        <time>2023-10-22T11:47:08Z</time>
      </trkpt>
      <trkpt lat="50.41582" lon="3.90311">
        <ele>72</ele>
        <time>2023-10-22T11:47:29Z</time>
      </trkpt>
      <trkpt lat="50.4166" lon="3.90313">
        <ele>69</ele>
        <time>2023-10-22T11:47:47Z</time>
      </trkpt>
      <trkpt lat="50.41679" lon="3.90293">
        <ele>70</ele>
        <time>2023-10-22T11:47:52Z</time>
      </trkpt>
      <trkpt lat="50.41722" lon="3.9023">
        <ele>71</ele>
        <time>2023-10-22T11:48:06Z</time>
      </trkpt>
      <trkpt lat="50.41522" lon="3.90136">
        <ele>77</ele>
        <time>2023-10-22T11:48:55Z</time>
      </trkpt>
      <trkpt lat="50.41508" lon="3.90124">
        <ele>77</ele>
        <time>2023-10-22T11:48:58Z</time>
      </trkpt>
      <trkpt lat="50.41344" lon="3.89935">
        <ele>84</ele>
        <time>2023-10-22T11:49:46Z</time>
      </trkpt>
      <trkpt lat="50.41366" lon="3.89889">
        <ele>85</ele>
        <time>2023-10-22T11:49:54Z</time>
      </trkpt>
      <trkpt lat="50.41372" lon="3.89887">
        <ele>84</ele>
        <time>2023-10-22T11:49:56Z</time>
      </trkpt>
      <trkpt lat="50.41386" lon="3.89862">
        <ele>85</ele>
        <time>2023-10-22T11:50:01Z</time>
      </trkpt>
      <trkpt lat="50.41415" lon="3.898">
        <ele>88</ele>
        <time>2023-10-22T11:50:12Z</time>
      </trkpt>
      <trkpt lat="50.41427" lon="3.89737">
        <ele>90</ele>
        <time>2023-10-22T11:50:22Z</time>
      </trkpt>
      <trkpt lat="50.41443" lon="3.8969">
        <ele>90</ele>
        <time>2023-10-22T11:50:30Z</time>
      </trkpt>
      <trkpt lat="50.4144" lon="3.89665">
        <ele>91</ele>
        <time>2023-10-22T11:50:34Z</time>
      </trkpt>
      <trkpt lat="50.41436" lon="3.89654">
        <ele>91</ele>
        <time>2023-10-22T11:50:36Z</time>
      </trkpt>
      <trkpt lat="50.41393" lon="3.89561">
        <ele>94</ele>
        <time>2023-10-22T11:50:53Z</time>
      </trkpt>
      <trkpt lat="50.41522" lon="3.89521">
        <ele>91</ele>
        <time>2023-10-22T11:51:23Z</time>
      </trkpt>
      <trkpt lat="50.41594" lon="3.89481">
        <ele>89</ele>
        <time>2023-10-22T11:51:41Z</time>
      </trkpt>
      <trkpt lat="50.41737" lon="3.89448">
        <ele>87</ele>
        <time>2023-10-22T11:52:15Z</time>
      </trkpt>
      <trkpt lat="50.41929" lon="3.89356">
        <ele>85</ele>
        <time>2023-10-22T11:53:02Z</time>
      </trkpt>
      <trkpt lat="50.41686" lon="3.89059">
        <ele>90</ele>
        <time>2023-10-22T11:54:14Z</time>
      </trkpt>
      <trkpt lat="50.41633" lon="3.8899">
        <ele>93</ele>
        <time>2023-10-22T11:54:30Z</time>
      </trkpt>
      <trkpt lat="50.41535" lon="3.88873">
        <ele>101</ele>
        <time>2023-10-22T11:54:59Z</time>
      </trkpt>
      <trkpt lat="50.41555" lon="3.88849">
        <ele>100</ele>
        <time>2023-10-22T11:55:05Z</time>
      </trkpt>
      <trkpt lat="50.41576" lon="3.88829">
        <ele>100</ele>
        <time>2023-10-22T11:55:10Z</time>
      </trkpt>
      <trkpt lat="50.41726" lon="3.88701">
        <ele>94</ele>
        <time>2023-10-22T11:55:50Z</time>
      </trkpt>
      <trkpt lat="50.41741" lon="3.88682">
        <ele>93</ele>
        <time>2023-10-22T11:55:55Z</time>
      </trkpt>
      <trkpt lat="50.41764" lon="3.88632">
        <ele>92</ele>
        <time>2023-10-22T11:56:04Z</time>
      </trkpt>
      <trkpt lat="50.41832" lon="3.88458">
        <ele>89</ele>
        <time>2023-10-22T11:56:34Z</time>
      </trkpt>
      <trkpt lat="50.4184" lon="3.88446">
        <ele>88</ele>
        <time>2023-10-22T11:56:37Z</time>
      </trkpt>
      <trkpt lat="50.41855" lon="3.88434">
        <ele>88</ele>
        <time>2023-10-22T11:56:41Z</time>
      </trkpt>
      <trkpt lat="50.41866" lon="3.8843">
        <ele>87</ele>
        <time>2023-10-22T11:56:43Z</time>
      </trkpt>
      <trkpt lat="50.41792" lon="3.88385">
        <ele>90</ele>
        <time>2023-10-22T11:57:02Z</time>
      </trkpt>
      <trkpt lat="50.41767" lon="3.88363">
        <ele>90</ele>
        <time>2023-10-22T11:57:09Z</time>
      </trkpt>
      <trkpt lat="50.41759" lon="3.88366">
        <ele>91</ele>
        <time>2023-10-22T11:57:11Z</time>
      </trkpt>
      <trkpt lat="50.41697" lon="3.88332">
        <ele>95</ele>
        <time>2023-10-22T11:57:26Z</time>
      </trkpt>
      <trkpt lat="50.41561" lon="3.88269">
        <ele>101</ele>
        <time>2023-10-22T11:57:59Z</time>
      </trkpt>
      <trkpt lat="50.41489" lon="3.88266">
        <ele>107</ele>
        <time>2023-10-22T11:58:16Z</time>
      </trkpt>
      <trkpt lat="50.41409" lon="3.88248">
        <ele>114</ele>
        <time>2023-10-22T11:58:35Z</time>
      </trkpt>
      <trkpt lat="50.41293" lon="3.88235">
        <ele>114</ele>
        <time>2023-10-22T11:59:02Z</time>
      </trkpt>
      <trkpt lat="50.41188" lon="3.88219">
        <ele>109</ele>
        <time>2023-10-22T11:59:26Z</time>
      </trkpt>
      <trkpt lat="50.41132" lon="3.88196">
        <ele>108</ele>
        <time>2023-10-22T11:59:40Z</time>
      </trkpt>
      <trkpt lat="50.41234" lon="3.88064">
        <ele>103</ele>
        <time>2023-10-22T12:00:11Z</time>
      </trkpt>
      <trkpt lat="50.41294" lon="3.88014">
        <ele>102</ele>
        <time>2023-10-22T12:00:27Z</time>
      </trkpt>
      <trkpt lat="50.4133" lon="3.88001">
        <ele>101</ele>
        <time>2023-10-22T12:00:35Z</time>
      </trkpt>
      <trkpt lat="50.41362" lon="3.87993">
        <ele>100</ele>
        <time>2023-10-22T12:00:43Z</time>
      </trkpt>
      <trkpt lat="50.41395" lon="3.87994">
        <ele>99</ele>
        <time>2023-10-22T12:00:51Z</time>
      </trkpt>
      <trkpt lat="50.41457" lon="3.88006">
        <ele>98</ele>
        <time>2023-10-22T12:01:05Z</time>
      </trkpt>
      <trkpt lat="50.41494" lon="3.88027">
        <ele>97</ele>
        <time>2023-10-22T12:01:14Z</time>
      </trkpt>
      <trkpt lat="50.41535" lon="3.88062">
        <ele>96</ele>
        <time>2023-10-22T12:01:25Z</time>
      </trkpt>
      <trkpt lat="50.41674" lon="3.88241">
        <ele>94</ele>
        <time>2023-10-22T12:02:07Z</time>
      </trkpt>
      <trkpt lat="50.41713" lon="3.88143">
        <ele>90</ele>
        <time>2023-10-22T12:02:24Z</time>
      </trkpt>
      <trkpt lat="50.41755" lon="3.8794">
        <ele>88</ele>
        <time>2023-10-22T12:02:56Z</time>
      </trkpt>
      <trkpt lat="50.41752" lon="3.87928">
        <ele>88</ele>
        <time>2023-10-22T12:02:58Z</time>
      </trkpt>
      <trkpt lat="50.41724" lon="3.87886">
        <ele>88</ele>
        <time>2023-10-22T12:03:07Z</time>
      </trkpt>
      <trkpt lat="50.41694" lon="3.87832">
        <ele>88</ele>
        <time>2023-10-22T12:03:18Z</time>
      </trkpt>
      <trkpt lat="50.41618" lon="3.87666">
        <ele>87</ele>
        <time>2023-10-22T12:03:48Z</time>
      </trkpt>
      <trkpt lat="50.4155" lon="3.87536">
        <ele>89</ele>
        <time>2023-10-22T12:04:13Z</time>
      </trkpt>
      <trkpt lat="50.41558" lon="3.8753">
        <ele>89</ele>
        <time>2023-10-22T12:04:15Z</time>
      </trkpt>
      <trkpt lat="50.4156" lon="3.87522">
        <ele>89</ele>
        <time>2023-10-22T12:04:17Z</time>
      </trkpt>
      <trkpt lat="50.41559" lon="3.87468">
        <ele>90</ele>
        <time>2023-10-22T12:04:25Z</time>
      </trkpt>
      <trkpt lat="50.41555" lon="3.87457">
        <ele>90</ele>
        <time>2023-10-22T12:04:27Z</time>
      </trkpt>
      <trkpt lat="50.41561" lon="3.87363">
        <ele>95</ele>
        <time>2023-10-22T12:04:41Z</time>
      </trkpt>
      <trkpt lat="50.41426" lon="3.87315">
        <ele>94</ele>
        <time>2023-10-22T12:05:13Z</time>
      </trkpt>
      <trkpt lat="50.41407" lon="3.87299">
        <ele>93</ele>
        <time>2023-10-22T12:05:18Z</time>
      </trkpt>
      <trkpt lat="50.41335" lon="3.8718">
        <ele>93</ele>
        <time>2023-10-22T12:05:42Z</time>
      </trkpt>
      <trkpt lat="50.41333" lon="3.87174">
        <ele>93</ele>
        <time>2023-10-22T12:05:43Z</time>
      </trkpt>
      <trkpt lat="50.41332" lon="3.87132">
        <ele>93</ele>
        <time>2023-10-22T12:05:50Z</time>
      </trkpt>
      <trkpt lat="50.41326" lon="3.87117">
        <ele>93</ele>
        <time>2023-10-22T12:05:52Z</time>
      </trkpt>
      <trkpt lat="50.41302" lon="3.87076">
        <ele>93</ele>
        <time>2023-10-22T12:06:01Z</time>
      </trkpt>
      <trkpt lat="50.41339" lon="3.87003">
        <ele>92</ele>
        <time>2023-10-22T12:06:15Z</time>
      </trkpt>
      <trkpt lat="50.41344" lon="3.87003">
        <ele>92</ele>
        <time>2023-10-22T12:06:16Z</time>
      </trkpt>
      <trkpt lat="50.41429" lon="3.86941">
        <ele>96</ele>
        <time>2023-10-22T12:06:38Z</time>
      </trkpt>
      <trkpt lat="50.41454" lon="3.86917">
        <ele>101</ele>
        <time>2023-10-22T12:06:44Z</time>
      </trkpt>
      <trkpt lat="50.4149" lon="3.86866">
        <ele>103</ele>
        <time>2023-10-22T12:06:56Z</time>
      </trkpt>
      <trkpt lat="50.41556" lon="3.8674">
        <ele>94</ele>
        <time>2023-10-22T12:07:20Z</time>
      </trkpt>
      <trkpt lat="50.41578" lon="3.86709">
        <ele>93</ele>
        <time>2023-10-22T12:07:27Z</time>
      </trkpt>
      <trkpt lat="50.41632" lon="3.86653">
        <ele>86</ele>
        <time>2023-10-22T12:07:42Z</time>
      </trkpt>
      <trkpt lat="50.41729" lon="3.86559">
        <ele>82</ele>
        <time>2023-10-22T12:08:09Z</time>
      </trkpt>
      <trkpt lat="50.4181" lon="3.86684">
        <ele>82</ele>
        <time>2023-10-22T12:08:35Z</time>
      </trkpt>
      <trkpt lat="50.41837" lon="3.86718">
        <ele>83</ele>
        <time>2023-10-22T12:08:43Z</time>
      </trkpt>
      <trkpt lat="50.41943" lon="3.86784">
        <ele>81</ele>
        <time>2023-10-22T12:09:10Z</time>
      </trkpt>
      <trkpt lat="50.41959" lon="3.86803">
        <ele>81</ele>
        <time>2023-10-22T12:09:15Z</time>
      </trkpt>
    </trkseg>
  </trk>
</gpx>